<?xml version="1.0" encoding="UTF-8" standalone="no" ?>
<gpx xmlns="http://www.topografix.com/GPX/1/1" xmlns:xsi="http://www.w3.org/2001/XMLSchema-instance" xsi:schemaLocation="http://www.topografix.com/GPX/1/1 http://www.topografix.com/GPX/1/1/gpx.xsd" version="1.1" creator="VisuGPX - https://www.visugpx.com">
  <metadata>
    <name>randogps56-273</name>
  </metadata>
  <trk>
    <name><![CDATA[randogps56-273]]></name>
    <trkseg>
      <trkpt lat="47.66122" lon="-2.53301">
        <ele>107.383766</ele>
        <time>2018-03-30T07:57:05Z</time>
      </trkpt>
      <trkpt lat="47.66129" lon="-2.53316">
        <ele>107</ele>
        <time>2018-03-30T07:57:14Z</time>
      </trkpt>
      <trkpt lat="47.66135" lon="-2.5333">
        <ele>107</ele>
        <time>2018-03-30T07:57:28Z</time>
      </trkpt>
      <trkpt lat="47.66129" lon="-2.5332">
        <ele>107.15284</ele>
        <time>2018-03-30T08:02:19Z</time>
      </trkpt>
      <trkpt lat="47.66126" lon="-2.53333">
        <ele>107.1</ele>
        <time>2018-03-30T08:02:29Z</time>
      </trkpt>
      <trkpt lat="47.6613" lon="-2.53346">
        <ele>108</ele>
        <time>2018-03-30T08:02:42Z</time>
      </trkpt>
      <trkpt lat="47.66126" lon="-2.53359">
        <ele>107.6</ele>
        <time>2018-03-30T08:02:50Z</time>
      </trkpt>
      <trkpt lat="47.66118" lon="-2.53352">
        <ele>107</ele>
        <time>2018-03-30T08:03:03Z</time>
      </trkpt>
      <trkpt lat="47.66114" lon="-2.53339">
        <ele>106.7</ele>
        <time>2018-03-30T08:03:14Z</time>
      </trkpt>
      <trkpt lat="47.66108" lon="-2.53328">
        <ele>106.9</ele>
        <time>2018-03-30T08:03:37Z</time>
      </trkpt>
      <trkpt lat="47.66107" lon="-2.53314">
        <ele>107.4</ele>
        <time>2018-03-30T08:03:54Z</time>
      </trkpt>
      <trkpt lat="47.66107" lon="-2.533">
        <ele>107.1</ele>
        <time>2018-03-30T08:04:05Z</time>
      </trkpt>
      <trkpt lat="47.66116" lon="-2.53295">
        <ele>107.2</ele>
        <time>2018-03-30T08:04:14Z</time>
      </trkpt>
      <trkpt lat="47.66125" lon="-2.53302">
        <ele>107</ele>
        <time>2018-03-30T08:04:26Z</time>
      </trkpt>
      <trkpt lat="47.66133" lon="-2.5331">
        <ele>106.9</ele>
        <time>2018-03-30T08:04:35Z</time>
      </trkpt>
      <trkpt lat="47.66134" lon="-2.53324">
        <ele>106.2</ele>
        <time>2018-03-30T08:04:43Z</time>
      </trkpt>
      <trkpt lat="47.66129" lon="-2.5331">
        <ele>106.5</ele>
        <time>2018-03-30T08:05:02Z</time>
      </trkpt>
      <trkpt lat="47.66126" lon="-2.53296">
        <ele>106.5</ele>
        <time>2018-03-30T08:05:10Z</time>
      </trkpt>
      <trkpt lat="47.66124" lon="-2.53283">
        <ele>106.4</ele>
        <time>2018-03-30T08:05:16Z</time>
      </trkpt>
      <trkpt lat="47.66123" lon="-2.53269">
        <ele>106.5</ele>
        <time>2018-03-30T08:05:21Z</time>
      </trkpt>
      <trkpt lat="47.66121" lon="-2.53255">
        <ele>106.5</ele>
        <time>2018-03-30T08:05:28Z</time>
      </trkpt>
      <trkpt lat="47.66118" lon="-2.53241">
        <ele>106.4</ele>
        <time>2018-03-30T08:05:35Z</time>
      </trkpt>
      <trkpt lat="47.66115" lon="-2.53228">
        <ele>105.2</ele>
        <time>2018-03-30T08:05:42Z</time>
      </trkpt>
      <trkpt lat="47.66113" lon="-2.53214">
        <ele>105.8</ele>
        <time>2018-03-30T08:05:49Z</time>
      </trkpt>
      <trkpt lat="47.66109" lon="-2.532">
        <ele>105.4</ele>
        <time>2018-03-30T08:05:57Z</time>
      </trkpt>
      <trkpt lat="47.66109" lon="-2.53185">
        <ele>105</ele>
        <time>2018-03-30T08:06:04Z</time>
      </trkpt>
      <trkpt lat="47.66108" lon="-2.5317">
        <ele>104.1</ele>
        <time>2018-03-30T08:06:12Z</time>
      </trkpt>
      <trkpt lat="47.66109" lon="-2.53156">
        <ele>104.4</ele>
        <time>2018-03-30T08:06:18Z</time>
      </trkpt>
      <trkpt lat="47.66111" lon="-2.53142">
        <ele>103.8</ele>
        <time>2018-03-30T08:06:24Z</time>
      </trkpt>
      <trkpt lat="47.66115" lon="-2.53129">
        <ele>103.1</ele>
        <time>2018-03-30T08:06:30Z</time>
      </trkpt>
      <trkpt lat="47.66118" lon="-2.53115">
        <ele>103.6</ele>
        <time>2018-03-30T08:06:36Z</time>
      </trkpt>
      <trkpt lat="47.6612" lon="-2.53102">
        <ele>103.6</ele>
        <time>2018-03-30T08:06:43Z</time>
      </trkpt>
      <trkpt lat="47.66124" lon="-2.5309">
        <ele>103.5</ele>
        <time>2018-03-30T08:06:50Z</time>
      </trkpt>
      <trkpt lat="47.66127" lon="-2.53075">
        <ele>103.2</ele>
        <time>2018-03-30T08:06:57Z</time>
      </trkpt>
      <trkpt lat="47.66131" lon="-2.53061">
        <ele>102.9</ele>
        <time>2018-03-30T08:07:04Z</time>
      </trkpt>
      <trkpt lat="47.66133" lon="-2.53047">
        <ele>103.8</ele>
        <time>2018-03-30T08:07:10Z</time>
      </trkpt>
      <trkpt lat="47.66137" lon="-2.53034">
        <ele>102.9</ele>
        <time>2018-03-30T08:07:17Z</time>
      </trkpt>
      <trkpt lat="47.66143" lon="-2.53023">
        <ele>103.5</ele>
        <time>2018-03-30T08:07:23Z</time>
      </trkpt>
      <trkpt lat="47.66149" lon="-2.53011">
        <ele>103.7</ele>
        <time>2018-03-30T08:07:30Z</time>
      </trkpt>
      <trkpt lat="47.66157" lon="-2.53005">
        <ele>103.4</ele>
        <time>2018-03-30T08:07:36Z</time>
      </trkpt>
      <trkpt lat="47.66161" lon="-2.52991">
        <ele>103.2</ele>
        <time>2018-03-30T08:07:44Z</time>
      </trkpt>
      <trkpt lat="47.66164" lon="-2.52978">
        <ele>102.2</ele>
        <time>2018-03-30T08:07:51Z</time>
      </trkpt>
      <trkpt lat="47.66167" lon="-2.52965">
        <ele>102.1</ele>
        <time>2018-03-30T08:08:01Z</time>
      </trkpt>
      <trkpt lat="47.66173" lon="-2.52953">
        <ele>101.9</ele>
        <time>2018-03-30T08:08:08Z</time>
      </trkpt>
      <trkpt lat="47.66178" lon="-2.52939">
        <ele>101.4</ele>
        <time>2018-03-30T08:08:14Z</time>
      </trkpt>
      <trkpt lat="47.66182" lon="-2.52926">
        <ele>100.8</ele>
        <time>2018-03-30T08:08:21Z</time>
      </trkpt>
      <trkpt lat="47.66186" lon="-2.52913">
        <ele>100.2</ele>
        <time>2018-03-30T08:08:28Z</time>
      </trkpt>
      <trkpt lat="47.66193" lon="-2.52902">
        <ele>100.3</ele>
        <time>2018-03-30T08:08:33Z</time>
      </trkpt>
      <trkpt lat="47.66199" lon="-2.5289">
        <ele>99</ele>
        <time>2018-03-30T08:08:43Z</time>
      </trkpt>
      <trkpt lat="47.66207" lon="-2.52881">
        <ele>98.8</ele>
        <time>2018-03-30T08:08:47Z</time>
      </trkpt>
      <trkpt lat="47.66216" lon="-2.52878">
        <ele>98.1</ele>
        <time>2018-03-30T08:08:54Z</time>
      </trkpt>
      <trkpt lat="47.66225" lon="-2.52872">
        <ele>97</ele>
        <time>2018-03-30T08:09:03Z</time>
      </trkpt>
      <trkpt lat="47.66234" lon="-2.52866">
        <ele>96.9</ele>
        <time>2018-03-30T08:09:09Z</time>
      </trkpt>
      <trkpt lat="47.66241" lon="-2.52856">
        <ele>95.3</ele>
        <time>2018-03-30T08:09:24Z</time>
      </trkpt>
      <trkpt lat="47.66247" lon="-2.52843">
        <ele>94.2</ele>
        <time>2018-03-30T08:09:32Z</time>
      </trkpt>
      <trkpt lat="47.66246" lon="-2.52829">
        <ele>92.3</ele>
        <time>2018-03-30T08:10:29Z</time>
      </trkpt>
      <trkpt lat="47.66243" lon="-2.52815">
        <ele>90.6</ele>
        <time>2018-03-30T08:10:43Z</time>
      </trkpt>
      <trkpt lat="47.66241" lon="-2.52802">
        <ele>89.7</ele>
        <time>2018-03-30T08:10:51Z</time>
      </trkpt>
      <trkpt lat="47.66243" lon="-2.52788">
        <ele>88</ele>
        <time>2018-03-30T08:11:02Z</time>
      </trkpt>
      <trkpt lat="47.66246" lon="-2.52774">
        <ele>86.1</ele>
        <time>2018-03-30T08:11:20Z</time>
      </trkpt>
      <trkpt lat="47.66254" lon="-2.52766">
        <ele>83.6</ele>
        <time>2018-03-30T08:11:28Z</time>
      </trkpt>
      <trkpt lat="47.66256" lon="-2.52753">
        <ele>85.4</ele>
        <time>2018-03-30T08:11:45Z</time>
      </trkpt>
      <trkpt lat="47.66264" lon="-2.52746">
        <ele>84.7</ele>
        <time>2018-03-30T08:12:06Z</time>
      </trkpt>
      <trkpt lat="47.66273" lon="-2.52743">
        <ele>85.1</ele>
        <time>2018-03-30T08:12:17Z</time>
      </trkpt>
      <trkpt lat="47.66282" lon="-2.52739">
        <ele>85.4</ele>
        <time>2018-03-30T08:12:26Z</time>
      </trkpt>
      <trkpt lat="47.66291" lon="-2.52736">
        <ele>85.5</ele>
        <time>2018-03-30T08:12:35Z</time>
      </trkpt>
      <trkpt lat="47.66301" lon="-2.52735">
        <ele>86.9</ele>
        <time>2018-03-30T08:12:45Z</time>
      </trkpt>
      <trkpt lat="47.6631" lon="-2.52737">
        <ele>87.9</ele>
        <time>2018-03-30T08:12:54Z</time>
      </trkpt>
      <trkpt lat="47.66314" lon="-2.52725">
        <ele>90.3</ele>
        <time>2018-03-30T08:13:06Z</time>
      </trkpt>
      <trkpt lat="47.66308" lon="-2.52715">
        <ele>92.7</ele>
        <time>2018-03-30T08:13:19Z</time>
      </trkpt>
      <trkpt lat="47.66307" lon="-2.52701">
        <ele>94.2</ele>
        <time>2018-03-30T08:13:30Z</time>
      </trkpt>
      <trkpt lat="47.66316" lon="-2.52699">
        <ele>96.1</ele>
        <time>2018-03-30T08:13:46Z</time>
      </trkpt>
      <trkpt lat="47.66327" lon="-2.527">
        <ele>97.1</ele>
        <time>2018-03-30T08:13:56Z</time>
      </trkpt>
      <trkpt lat="47.66333" lon="-2.5269">
        <ele>99.2</ele>
        <time>2018-03-30T08:14:09Z</time>
      </trkpt>
      <trkpt lat="47.66332" lon="-2.52676">
        <ele>100.9</ele>
        <time>2018-03-30T08:14:39Z</time>
      </trkpt>
      <trkpt lat="47.66332" lon="-2.52662">
        <ele>102</ele>
        <time>2018-03-30T08:14:59Z</time>
      </trkpt>
      <trkpt lat="47.66337" lon="-2.5265">
        <ele>101.7</ele>
        <time>2018-03-30T08:15:20Z</time>
      </trkpt>
      <trkpt lat="47.66341" lon="-2.52637">
        <ele>102.2</ele>
        <time>2018-03-30T08:15:32Z</time>
      </trkpt>
      <trkpt lat="47.66343" lon="-2.52623">
        <ele>102.5</ele>
        <time>2018-03-30T08:15:41Z</time>
      </trkpt>
      <trkpt lat="47.66344" lon="-2.52608">
        <ele>102.8</ele>
        <time>2018-03-30T08:15:50Z</time>
      </trkpt>
      <trkpt lat="47.66345" lon="-2.52594">
        <ele>103.2</ele>
        <time>2018-03-30T08:15:57Z</time>
      </trkpt>
      <trkpt lat="47.66348" lon="-2.52582">
        <ele>104</ele>
        <time>2018-03-30T08:16:05Z</time>
      </trkpt>
      <trkpt lat="47.66351" lon="-2.52568">
        <ele>103.8</ele>
        <time>2018-03-30T08:16:13Z</time>
      </trkpt>
      <trkpt lat="47.66354" lon="-2.52555">
        <ele>104.1</ele>
        <time>2018-03-30T08:16:21Z</time>
      </trkpt>
      <trkpt lat="47.66353" lon="-2.52541">
        <ele>104.2</ele>
        <time>2018-03-30T08:16:35Z</time>
      </trkpt>
      <trkpt lat="47.66345" lon="-2.52532">
        <ele>103.6</ele>
        <time>2018-03-30T08:16:42Z</time>
      </trkpt>
      <trkpt lat="47.66336" lon="-2.52528">
        <ele>103.3</ele>
        <time>2018-03-30T08:16:50Z</time>
      </trkpt>
      <trkpt lat="47.66327" lon="-2.52523">
        <ele>103.1</ele>
        <time>2018-03-30T08:16:58Z</time>
      </trkpt>
      <trkpt lat="47.66319" lon="-2.52515">
        <ele>102.8</ele>
        <time>2018-03-30T08:17:05Z</time>
      </trkpt>
      <trkpt lat="47.66313" lon="-2.52503">
        <ele>102.8</ele>
        <time>2018-03-30T08:17:12Z</time>
      </trkpt>
      <trkpt lat="47.66309" lon="-2.5249">
        <ele>102.6</ele>
        <time>2018-03-30T08:17:19Z</time>
      </trkpt>
      <trkpt lat="47.66305" lon="-2.52476">
        <ele>101.5</ele>
        <time>2018-03-30T08:17:27Z</time>
      </trkpt>
      <trkpt lat="47.66301" lon="-2.52462">
        <ele>101.1</ele>
        <time>2018-03-30T08:17:34Z</time>
      </trkpt>
      <trkpt lat="47.66298" lon="-2.52449">
        <ele>100.4</ele>
        <time>2018-03-30T08:17:41Z</time>
      </trkpt>
      <trkpt lat="47.66298" lon="-2.52434">
        <ele>100.1</ele>
        <time>2018-03-30T08:17:49Z</time>
      </trkpt>
      <trkpt lat="47.66294" lon="-2.52421">
        <ele>99.6</ele>
        <time>2018-03-30T08:17:57Z</time>
      </trkpt>
      <trkpt lat="47.66297" lon="-2.52407">
        <ele>99.4</ele>
        <time>2018-03-30T08:18:03Z</time>
      </trkpt>
      <trkpt lat="47.66295" lon="-2.52392">
        <ele>98.8</ele>
        <time>2018-03-30T08:18:09Z</time>
      </trkpt>
      <trkpt lat="47.66293" lon="-2.52378">
        <ele>98.3</ele>
        <time>2018-03-30T08:18:15Z</time>
      </trkpt>
      <trkpt lat="47.6629" lon="-2.52365">
        <ele>98.3</ele>
        <time>2018-03-30T08:18:21Z</time>
      </trkpt>
      <trkpt lat="47.66288" lon="-2.5235">
        <ele>97.9</ele>
        <time>2018-03-30T08:18:28Z</time>
      </trkpt>
      <trkpt lat="47.66285" lon="-2.52338">
        <ele>97.9</ele>
        <time>2018-03-30T08:18:35Z</time>
      </trkpt>
      <trkpt lat="47.6628" lon="-2.52327">
        <ele>97.8</ele>
        <time>2018-03-30T08:18:43Z</time>
      </trkpt>
      <trkpt lat="47.66277" lon="-2.52313">
        <ele>97.5</ele>
        <time>2018-03-30T08:18:51Z</time>
      </trkpt>
      <trkpt lat="47.66273" lon="-2.52299">
        <ele>98.2</ele>
        <time>2018-03-30T08:18:58Z</time>
      </trkpt>
      <trkpt lat="47.66272" lon="-2.52286">
        <ele>98.2</ele>
        <time>2018-03-30T08:19:04Z</time>
      </trkpt>
      <trkpt lat="47.66274" lon="-2.52271">
        <ele>99</ele>
        <time>2018-03-30T08:19:12Z</time>
      </trkpt>
      <trkpt lat="47.66279" lon="-2.52257">
        <ele>99.3</ele>
        <time>2018-03-30T08:19:19Z</time>
      </trkpt>
      <trkpt lat="47.66282" lon="-2.52245">
        <ele>100.1</ele>
        <time>2018-03-30T08:19:26Z</time>
      </trkpt>
      <trkpt lat="47.66286" lon="-2.5223">
        <ele>100.7</ele>
        <time>2018-03-30T08:19:33Z</time>
      </trkpt>
      <trkpt lat="47.6629" lon="-2.52218">
        <ele>101.7</ele>
        <time>2018-03-30T08:19:40Z</time>
      </trkpt>
      <trkpt lat="47.66294" lon="-2.52205">
        <ele>101.4</ele>
        <time>2018-03-30T08:19:49Z</time>
      </trkpt>
      <trkpt lat="47.66298" lon="-2.52192">
        <ele>101.5</ele>
        <time>2018-03-30T08:20:02Z</time>
      </trkpt>
      <trkpt lat="47.66301" lon="-2.52179">
        <ele>101.8</ele>
        <time>2018-03-30T08:20:10Z</time>
      </trkpt>
      <trkpt lat="47.663" lon="-2.52165">
        <ele>101.6</ele>
        <time>2018-03-30T08:20:21Z</time>
      </trkpt>
      <trkpt lat="47.66303" lon="-2.52151">
        <ele>101.7</ele>
        <time>2018-03-30T08:20:27Z</time>
      </trkpt>
      <trkpt lat="47.66305" lon="-2.52137">
        <ele>101.9</ele>
        <time>2018-03-30T08:20:33Z</time>
      </trkpt>
      <trkpt lat="47.66308" lon="-2.52124">
        <ele>102.3</ele>
        <time>2018-03-30T08:20:42Z</time>
      </trkpt>
      <trkpt lat="47.66312" lon="-2.52112">
        <ele>102.8</ele>
        <time>2018-03-30T08:20:49Z</time>
      </trkpt>
      <trkpt lat="47.66319" lon="-2.521">
        <ele>103.2</ele>
        <time>2018-03-30T08:20:56Z</time>
      </trkpt>
      <trkpt lat="47.66326" lon="-2.52091">
        <ele>104.5</ele>
        <time>2018-03-30T08:21:26Z</time>
      </trkpt>
      <trkpt lat="47.66332" lon="-2.52078">
        <ele>105</ele>
        <time>2018-03-30T08:21:36Z</time>
      </trkpt>
      <trkpt lat="47.66333" lon="-2.52064">
        <ele>105</ele>
        <time>2018-03-30T08:22:38Z</time>
      </trkpt>
      <trkpt lat="47.66339" lon="-2.52053">
        <ele>104.9</ele>
        <time>2018-03-30T08:22:47Z</time>
      </trkpt>
      <trkpt lat="47.66345" lon="-2.5204">
        <ele>106</ele>
        <time>2018-03-30T08:22:55Z</time>
      </trkpt>
      <trkpt lat="47.6635" lon="-2.52027">
        <ele>105.8</ele>
        <time>2018-03-30T08:23:01Z</time>
      </trkpt>
      <trkpt lat="47.66355" lon="-2.52015">
        <ele>105.7</ele>
        <time>2018-03-30T08:23:10Z</time>
      </trkpt>
      <trkpt lat="47.6636" lon="-2.52003">
        <ele>105.1</ele>
        <time>2018-03-30T08:23:16Z</time>
      </trkpt>
      <trkpt lat="47.66367" lon="-2.51991">
        <ele>105</ele>
        <time>2018-03-30T08:23:23Z</time>
      </trkpt>
      <trkpt lat="47.66373" lon="-2.51981">
        <ele>104.4</ele>
        <time>2018-03-30T08:23:30Z</time>
      </trkpt>
      <trkpt lat="47.66381" lon="-2.51974">
        <ele>104.1</ele>
        <time>2018-03-30T08:23:37Z</time>
      </trkpt>
      <trkpt lat="47.66389" lon="-2.51968">
        <ele>103.5</ele>
        <time>2018-03-30T08:23:44Z</time>
      </trkpt>
      <trkpt lat="47.66399" lon="-2.51963">
        <ele>102.9</ele>
        <time>2018-03-30T08:23:52Z</time>
      </trkpt>
      <trkpt lat="47.66408" lon="-2.51962">
        <ele>102.2</ele>
        <time>2018-03-30T08:23:58Z</time>
      </trkpt>
      <trkpt lat="47.66418" lon="-2.5196">
        <ele>101.5</ele>
        <time>2018-03-30T08:24:04Z</time>
      </trkpt>
      <trkpt lat="47.66427" lon="-2.51953">
        <ele>101</ele>
        <time>2018-03-30T08:24:12Z</time>
      </trkpt>
      <trkpt lat="47.66436" lon="-2.5195">
        <ele>100.5</ele>
        <time>2018-03-30T08:24:18Z</time>
      </trkpt>
      <trkpt lat="47.66444" lon="-2.51945">
        <ele>100.3</ele>
        <time>2018-03-30T08:24:25Z</time>
      </trkpt>
      <trkpt lat="47.66453" lon="-2.51936">
        <ele>100</ele>
        <time>2018-03-30T08:24:31Z</time>
      </trkpt>
      <trkpt lat="47.66457" lon="-2.51924">
        <ele>99.5</ele>
        <time>2018-03-30T08:24:38Z</time>
      </trkpt>
      <trkpt lat="47.66462" lon="-2.51912">
        <ele>99.4</ele>
        <time>2018-03-30T08:24:45Z</time>
      </trkpt>
      <trkpt lat="47.66466" lon="-2.519">
        <ele>99.5</ele>
        <time>2018-03-30T08:24:52Z</time>
      </trkpt>
      <trkpt lat="47.66474" lon="-2.51891">
        <ele>99.5</ele>
        <time>2018-03-30T08:24:59Z</time>
      </trkpt>
      <trkpt lat="47.66485" lon="-2.51888">
        <ele>99.8</ele>
        <time>2018-03-30T08:25:05Z</time>
      </trkpt>
      <trkpt lat="47.66493" lon="-2.51881">
        <ele>100.8</ele>
        <time>2018-03-30T08:25:14Z</time>
      </trkpt>
      <trkpt lat="47.66503" lon="-2.51878">
        <ele>102.1</ele>
        <time>2018-03-30T08:25:24Z</time>
      </trkpt>
      <trkpt lat="47.66509" lon="-2.51889">
        <ele>102.1</ele>
        <time>2018-03-30T08:25:56Z</time>
      </trkpt>
      <trkpt lat="47.66514" lon="-2.51902">
        <ele>101.9</ele>
        <time>2018-03-30T08:26:15Z</time>
      </trkpt>
      <trkpt lat="47.66518" lon="-2.51915">
        <ele>101.8</ele>
        <time>2018-03-30T08:26:25Z</time>
      </trkpt>
      <trkpt lat="47.66523" lon="-2.51927">
        <ele>102</ele>
        <time>2018-03-30T08:26:32Z</time>
      </trkpt>
      <trkpt lat="47.66526" lon="-2.51941">
        <ele>102.4</ele>
        <time>2018-03-30T08:26:40Z</time>
      </trkpt>
      <trkpt lat="47.6653" lon="-2.51952">
        <ele>102.6</ele>
        <time>2018-03-30T08:26:47Z</time>
      </trkpt>
      <trkpt lat="47.66533" lon="-2.51967">
        <ele>102.6</ele>
        <time>2018-03-30T08:26:53Z</time>
      </trkpt>
      <trkpt lat="47.66536" lon="-2.51981">
        <ele>102.7</ele>
        <time>2018-03-30T08:27:01Z</time>
      </trkpt>
      <trkpt lat="47.66541" lon="-2.51992">
        <ele>102.5</ele>
        <time>2018-03-30T08:27:08Z</time>
      </trkpt>
      <trkpt lat="47.66545" lon="-2.52004">
        <ele>102.7</ele>
        <time>2018-03-30T08:27:15Z</time>
      </trkpt>
      <trkpt lat="47.66553" lon="-2.52012">
        <ele>103.1</ele>
        <time>2018-03-30T08:27:20Z</time>
      </trkpt>
      <trkpt lat="47.66561" lon="-2.5202">
        <ele>103.9</ele>
        <time>2018-03-30T08:27:29Z</time>
      </trkpt>
      <trkpt lat="47.6657" lon="-2.52024">
        <ele>104.2</ele>
        <time>2018-03-30T08:27:43Z</time>
      </trkpt>
      <trkpt lat="47.66577" lon="-2.52033">
        <ele>104.1</ele>
        <time>2018-03-30T08:27:50Z</time>
      </trkpt>
      <trkpt lat="47.66587" lon="-2.52038">
        <ele>104.3</ele>
        <time>2018-03-30T08:27:59Z</time>
      </trkpt>
      <trkpt lat="47.66591" lon="-2.52051">
        <ele>104.6</ele>
        <time>2018-03-30T08:28:06Z</time>
      </trkpt>
      <trkpt lat="47.66595" lon="-2.52063">
        <ele>104.5</ele>
        <time>2018-03-30T08:28:16Z</time>
      </trkpt>
      <trkpt lat="47.66595" lon="-2.52077">
        <ele>104.3</ele>
        <time>2018-03-30T08:28:28Z</time>
      </trkpt>
      <trkpt lat="47.66598" lon="-2.5209">
        <ele>104.3</ele>
        <time>2018-03-30T08:28:48Z</time>
      </trkpt>
      <trkpt lat="47.66607" lon="-2.52092">
        <ele>105</ele>
        <time>2018-03-30T08:29:03Z</time>
      </trkpt>
      <trkpt lat="47.66616" lon="-2.52097">
        <ele>105</ele>
        <time>2018-03-30T08:29:13Z</time>
      </trkpt>
      <trkpt lat="47.66623" lon="-2.52107">
        <ele>105</ele>
        <time>2018-03-30T08:29:25Z</time>
      </trkpt>
      <trkpt lat="47.66633" lon="-2.52112">
        <ele>105.4</ele>
        <time>2018-03-30T08:29:35Z</time>
      </trkpt>
      <trkpt lat="47.66641" lon="-2.5212">
        <ele>106</ele>
        <time>2018-03-30T08:29:45Z</time>
      </trkpt>
      <trkpt lat="47.66651" lon="-2.52126">
        <ele>106.2</ele>
        <time>2018-03-30T08:29:51Z</time>
      </trkpt>
      <trkpt lat="47.66662" lon="-2.52127">
        <ele>106.6</ele>
        <time>2018-03-30T08:29:57Z</time>
      </trkpt>
      <trkpt lat="47.66671" lon="-2.52134">
        <ele>106.8</ele>
        <time>2018-03-30T08:30:06Z</time>
      </trkpt>
      <trkpt lat="47.6668" lon="-2.52139">
        <ele>106.9</ele>
        <time>2018-03-30T08:30:12Z</time>
      </trkpt>
      <trkpt lat="47.66689" lon="-2.52142">
        <ele>107.6</ele>
        <time>2018-03-30T08:30:21Z</time>
      </trkpt>
      <trkpt lat="47.66698" lon="-2.52144">
        <ele>108.3</ele>
        <time>2018-03-30T08:30:31Z</time>
      </trkpt>
      <trkpt lat="47.66709" lon="-2.52147">
        <ele>108.7</ele>
        <time>2018-03-30T08:30:38Z</time>
      </trkpt>
      <trkpt lat="47.66718" lon="-2.52153">
        <ele>109.3</ele>
        <time>2018-03-30T08:30:47Z</time>
      </trkpt>
      <trkpt lat="47.66727" lon="-2.52159">
        <ele>109.5</ele>
        <time>2018-03-30T08:30:52Z</time>
      </trkpt>
      <trkpt lat="47.66737" lon="-2.52165">
        <ele>109.6</ele>
        <time>2018-03-30T08:30:58Z</time>
      </trkpt>
      <trkpt lat="47.66745" lon="-2.52171">
        <ele>110</ele>
        <time>2018-03-30T08:31:04Z</time>
      </trkpt>
      <trkpt lat="47.66755" lon="-2.52175">
        <ele>110.6</ele>
        <time>2018-03-30T08:31:11Z</time>
      </trkpt>
      <trkpt lat="47.66764" lon="-2.5218">
        <ele>110.8</ele>
        <time>2018-03-30T08:31:21Z</time>
      </trkpt>
      <trkpt lat="47.66772" lon="-2.52183">
        <ele>110.8</ele>
        <time>2018-03-30T08:31:25Z</time>
      </trkpt>
      <trkpt lat="47.66781" lon="-2.52188">
        <ele>111.4</ele>
        <time>2018-03-30T08:31:32Z</time>
      </trkpt>
      <trkpt lat="47.6679" lon="-2.52193">
        <ele>111.5</ele>
        <time>2018-03-30T08:31:38Z</time>
      </trkpt>
      <trkpt lat="47.668" lon="-2.52197">
        <ele>112.5</ele>
        <time>2018-03-30T08:31:52Z</time>
      </trkpt>
      <trkpt lat="47.66808" lon="-2.522">
        <ele>112.9</ele>
        <time>2018-03-30T08:32:01Z</time>
      </trkpt>
      <trkpt lat="47.66819" lon="-2.52204">
        <ele>113.6</ele>
        <time>2018-03-30T08:32:09Z</time>
      </trkpt>
      <trkpt lat="47.66827" lon="-2.52208">
        <ele>114.4</ele>
        <time>2018-03-30T08:32:17Z</time>
      </trkpt>
      <trkpt lat="47.66837" lon="-2.52209">
        <ele>115.1</ele>
        <time>2018-03-30T08:32:32Z</time>
      </trkpt>
      <trkpt lat="47.66847" lon="-2.52209">
        <ele>115.2</ele>
        <time>2018-03-30T08:32:41Z</time>
      </trkpt>
      <trkpt lat="47.66856" lon="-2.52212">
        <ele>115.6</ele>
        <time>2018-03-30T08:32:47Z</time>
      </trkpt>
      <trkpt lat="47.66865" lon="-2.52215">
        <ele>116.3</ele>
        <time>2018-03-30T08:32:55Z</time>
      </trkpt>
      <trkpt lat="47.66874" lon="-2.52221">
        <ele>116.6</ele>
        <time>2018-03-30T08:33:36Z</time>
      </trkpt>
      <trkpt lat="47.66883" lon="-2.52222">
        <ele>117</ele>
        <time>2018-03-30T08:33:44Z</time>
      </trkpt>
      <trkpt lat="47.66893" lon="-2.52224">
        <ele>117.3</ele>
        <time>2018-03-30T08:33:56Z</time>
      </trkpt>
      <trkpt lat="47.66902" lon="-2.5222">
        <ele>117.2</ele>
        <time>2018-03-30T08:34:03Z</time>
      </trkpt>
      <trkpt lat="47.66911" lon="-2.52224">
        <ele>117.4</ele>
        <time>2018-03-30T08:34:11Z</time>
      </trkpt>
      <trkpt lat="47.66918" lon="-2.52235">
        <ele>117.7</ele>
        <time>2018-03-30T08:34:19Z</time>
      </trkpt>
      <trkpt lat="47.66921" lon="-2.52249">
        <ele>117.8</ele>
        <time>2018-03-30T08:34:36Z</time>
      </trkpt>
      <trkpt lat="47.6692" lon="-2.52262">
        <ele>117.4</ele>
        <time>2018-03-30T08:34:44Z</time>
      </trkpt>
      <trkpt lat="47.66916" lon="-2.52276">
        <ele>117.7</ele>
        <time>2018-03-30T08:34:52Z</time>
      </trkpt>
      <trkpt lat="47.66919" lon="-2.52289">
        <ele>117.3</ele>
        <time>2018-03-30T08:34:58Z</time>
      </trkpt>
      <trkpt lat="47.66922" lon="-2.52303">
        <ele>117.7</ele>
        <time>2018-03-30T08:35:05Z</time>
      </trkpt>
      <trkpt lat="47.66924" lon="-2.52317">
        <ele>118.2</ele>
        <time>2018-03-30T08:35:12Z</time>
      </trkpt>
      <trkpt lat="47.66925" lon="-2.52333">
        <ele>118.5</ele>
        <time>2018-03-30T08:35:19Z</time>
      </trkpt>
      <trkpt lat="47.66926" lon="-2.52346">
        <ele>118.8</ele>
        <time>2018-03-30T08:35:25Z</time>
      </trkpt>
      <trkpt lat="47.66928" lon="-2.52361">
        <ele>119.1</ele>
        <time>2018-03-30T08:35:32Z</time>
      </trkpt>
      <trkpt lat="47.66927" lon="-2.52375">
        <ele>119.1</ele>
        <time>2018-03-30T08:35:41Z</time>
      </trkpt>
      <trkpt lat="47.66927" lon="-2.5239">
        <ele>119.7</ele>
        <time>2018-03-30T08:35:48Z</time>
      </trkpt>
      <trkpt lat="47.66928" lon="-2.52405">
        <ele>120</ele>
        <time>2018-03-30T08:35:56Z</time>
      </trkpt>
      <trkpt lat="47.66926" lon="-2.52418">
        <ele>120</ele>
        <time>2018-03-30T08:36:05Z</time>
      </trkpt>
      <trkpt lat="47.66924" lon="-2.52431">
        <ele>119.9</ele>
        <time>2018-03-30T08:36:12Z</time>
      </trkpt>
      <trkpt lat="47.66923" lon="-2.52445">
        <ele>119.7</ele>
        <time>2018-03-30T08:36:19Z</time>
      </trkpt>
      <trkpt lat="47.66923" lon="-2.52459">
        <ele>120.3</ele>
        <time>2018-03-30T08:36:26Z</time>
      </trkpt>
      <trkpt lat="47.66918" lon="-2.52473">
        <ele>120.7</ele>
        <time>2018-03-30T08:36:34Z</time>
      </trkpt>
      <trkpt lat="47.66918" lon="-2.52487">
        <ele>120.8</ele>
        <time>2018-03-30T08:36:40Z</time>
      </trkpt>
      <trkpt lat="47.6692" lon="-2.525">
        <ele>120.8</ele>
        <time>2018-03-30T08:36:47Z</time>
      </trkpt>
      <trkpt lat="47.66922" lon="-2.52516">
        <ele>120.8</ele>
        <time>2018-03-30T08:36:54Z</time>
      </trkpt>
      <trkpt lat="47.66924" lon="-2.52529">
        <ele>120.9</ele>
        <time>2018-03-30T08:37:01Z</time>
      </trkpt>
      <trkpt lat="47.66923" lon="-2.52543">
        <ele>121.5</ele>
        <time>2018-03-30T08:37:34Z</time>
      </trkpt>
      <trkpt lat="47.66932" lon="-2.52542">
        <ele>120.9</ele>
        <time>2018-03-30T08:37:54Z</time>
      </trkpt>
      <trkpt lat="47.6694" lon="-2.52538">
        <ele>121.1</ele>
        <time>2018-03-30T08:38:00Z</time>
      </trkpt>
      <trkpt lat="47.6695" lon="-2.52533">
        <ele>121</ele>
        <time>2018-03-30T08:38:08Z</time>
      </trkpt>
      <trkpt lat="47.66958" lon="-2.52528">
        <ele>120.9</ele>
        <time>2018-03-30T08:38:18Z</time>
      </trkpt>
      <trkpt lat="47.66966" lon="-2.5252">
        <ele>120.8</ele>
        <time>2018-03-30T08:38:29Z</time>
      </trkpt>
      <trkpt lat="47.66976" lon="-2.52526">
        <ele>120.4</ele>
        <time>2018-03-30T08:38:37Z</time>
      </trkpt>
      <trkpt lat="47.66983" lon="-2.52534">
        <ele>118.8</ele>
        <time>2018-03-30T08:38:46Z</time>
      </trkpt>
      <trkpt lat="47.66992" lon="-2.52538">
        <ele>119.1</ele>
        <time>2018-03-30T08:38:53Z</time>
      </trkpt>
      <trkpt lat="47.67001" lon="-2.52541">
        <ele>118.7</ele>
        <time>2018-03-30T08:38:59Z</time>
      </trkpt>
      <trkpt lat="47.67011" lon="-2.52542">
        <ele>118</ele>
        <time>2018-03-30T08:39:08Z</time>
      </trkpt>
      <trkpt lat="47.67019" lon="-2.52547">
        <ele>117.4</ele>
        <time>2018-03-30T08:39:17Z</time>
      </trkpt>
      <trkpt lat="47.67029" lon="-2.52553">
        <ele>117.7</ele>
        <time>2018-03-30T08:39:22Z</time>
      </trkpt>
      <trkpt lat="47.67039" lon="-2.52554">
        <ele>117.2</ele>
        <time>2018-03-30T08:39:29Z</time>
      </trkpt>
      <trkpt lat="47.67048" lon="-2.52554">
        <ele>117.2</ele>
        <time>2018-03-30T08:39:35Z</time>
      </trkpt>
      <trkpt lat="47.67057" lon="-2.52553">
        <ele>116.6</ele>
        <time>2018-03-30T08:39:42Z</time>
      </trkpt>
      <trkpt lat="47.67067" lon="-2.52551">
        <ele>116.6</ele>
        <time>2018-03-30T08:39:47Z</time>
      </trkpt>
      <trkpt lat="47.67076" lon="-2.52545">
        <ele>116.2</ele>
        <time>2018-03-30T08:39:56Z</time>
      </trkpt>
      <trkpt lat="47.67088" lon="-2.52537">
        <ele>116.2</ele>
        <time>2018-03-30T08:40:08Z</time>
      </trkpt>
      <trkpt lat="47.67096" lon="-2.52531">
        <ele>116</ele>
        <time>2018-03-30T08:40:16Z</time>
      </trkpt>
      <trkpt lat="47.67105" lon="-2.52525">
        <ele>115.6</ele>
        <time>2018-03-30T08:40:24Z</time>
      </trkpt>
      <trkpt lat="47.67111" lon="-2.52513">
        <ele>115.1</ele>
        <time>2018-03-30T08:40:39Z</time>
      </trkpt>
      <trkpt lat="47.67118" lon="-2.52505">
        <ele>115</ele>
        <time>2018-03-30T08:40:44Z</time>
      </trkpt>
      <trkpt lat="47.67125" lon="-2.52496">
        <ele>114.9</ele>
        <time>2018-03-30T08:40:51Z</time>
      </trkpt>
      <trkpt lat="47.67133" lon="-2.52487">
        <ele>114.4</ele>
        <time>2018-03-30T08:41:01Z</time>
      </trkpt>
      <trkpt lat="47.6714" lon="-2.52478">
        <ele>114.1</ele>
        <time>2018-03-30T08:41:12Z</time>
      </trkpt>
      <trkpt lat="47.67148" lon="-2.52474">
        <ele>114</ele>
        <time>2018-03-30T08:41:26Z</time>
      </trkpt>
      <trkpt lat="47.67159" lon="-2.52465">
        <ele>113.5</ele>
        <time>2018-03-30T08:41:33Z</time>
      </trkpt>
      <trkpt lat="47.67169" lon="-2.52463">
        <ele>113.1</ele>
        <time>2018-03-30T08:41:37Z</time>
      </trkpt>
      <trkpt lat="47.67178" lon="-2.52461">
        <ele>112.4</ele>
        <time>2018-03-30T08:41:54Z</time>
      </trkpt>
      <trkpt lat="47.67188" lon="-2.52459">
        <ele>111.7</ele>
        <time>2018-03-30T08:42:03Z</time>
      </trkpt>
      <trkpt lat="47.67197" lon="-2.52459">
        <ele>110.7</ele>
        <time>2018-03-30T08:42:18Z</time>
      </trkpt>
      <trkpt lat="47.67209" lon="-2.52454">
        <ele>110.2</ele>
        <time>2018-03-30T08:42:23Z</time>
      </trkpt>
      <trkpt lat="47.67218" lon="-2.52449">
        <ele>109.1</ele>
        <time>2018-03-30T08:42:35Z</time>
      </trkpt>
      <trkpt lat="47.67228" lon="-2.52452">
        <ele>107.4</ele>
        <time>2018-03-30T08:43:07Z</time>
      </trkpt>
      <trkpt lat="47.67237" lon="-2.52453">
        <ele>106.5</ele>
        <time>2018-03-30T08:43:19Z</time>
      </trkpt>
      <trkpt lat="47.67247" lon="-2.52454">
        <ele>105.9</ele>
        <time>2018-03-30T08:43:30Z</time>
      </trkpt>
      <trkpt lat="47.67256" lon="-2.52451">
        <ele>104.2</ele>
        <time>2018-03-30T08:43:41Z</time>
      </trkpt>
      <trkpt lat="47.67264" lon="-2.52443">
        <ele>103.1</ele>
        <time>2018-03-30T08:43:52Z</time>
      </trkpt>
      <trkpt lat="47.67272" lon="-2.52435">
        <ele>102</ele>
        <time>2018-03-30T08:43:59Z</time>
      </trkpt>
      <trkpt lat="47.67279" lon="-2.52425">
        <ele>100.3</ele>
        <time>2018-03-30T08:44:08Z</time>
      </trkpt>
      <trkpt lat="47.6727" lon="-2.52418">
        <ele>99.7</ele>
        <time>2018-03-30T08:44:53Z</time>
      </trkpt>
      <trkpt lat="47.67264" lon="-2.52408">
        <ele>100.6</ele>
        <time>2018-03-30T08:45:04Z</time>
      </trkpt>
      <trkpt lat="47.67264" lon="-2.52394">
        <ele>100.5</ele>
        <time>2018-03-30T08:45:20Z</time>
      </trkpt>
      <trkpt lat="47.67257" lon="-2.52384">
        <ele>100.4</ele>
        <time>2018-03-30T08:45:57Z</time>
      </trkpt>
      <trkpt lat="47.67252" lon="-2.52372">
        <ele>100.5</ele>
        <time>2018-03-30T08:46:20Z</time>
      </trkpt>
      <trkpt lat="47.67243" lon="-2.52369">
        <ele>100.8</ele>
        <time>2018-03-30T08:46:41Z</time>
      </trkpt>
      <trkpt lat="47.6725" lon="-2.52379">
        <ele>100.4</ele>
        <time>2018-03-30T08:46:54Z</time>
      </trkpt>
      <trkpt lat="47.67254" lon="-2.52392">
        <ele>100.6</ele>
        <time>2018-03-30T08:47:03Z</time>
      </trkpt>
      <trkpt lat="47.67262" lon="-2.52402">
        <ele>100.9</ele>
        <time>2018-03-30T08:47:11Z</time>
      </trkpt>
      <trkpt lat="47.6727" lon="-2.52406">
        <ele>99.9</ele>
        <time>2018-03-30T08:47:18Z</time>
      </trkpt>
      <trkpt lat="47.6728" lon="-2.5241">
        <ele>99.4</ele>
        <time>2018-03-30T08:47:26Z</time>
      </trkpt>
      <trkpt lat="47.6729" lon="-2.52412">
        <ele>98.6</ele>
        <time>2018-03-30T08:47:34Z</time>
      </trkpt>
      <trkpt lat="47.67299" lon="-2.52414">
        <ele>98</ele>
        <time>2018-03-30T08:47:42Z</time>
      </trkpt>
      <trkpt lat="47.67309" lon="-2.52415">
        <ele>97.5</ele>
        <time>2018-03-30T08:47:50Z</time>
      </trkpt>
      <trkpt lat="47.67316" lon="-2.52408">
        <ele>94.3</ele>
        <time>2018-03-30T08:48:02Z</time>
      </trkpt>
      <trkpt lat="47.67324" lon="-2.524">
        <ele>94</ele>
        <time>2018-03-30T08:48:08Z</time>
      </trkpt>
      <trkpt lat="47.67332" lon="-2.52394">
        <ele>91.9</ele>
        <time>2018-03-30T08:48:13Z</time>
      </trkpt>
      <trkpt lat="47.67341" lon="-2.52387">
        <ele>90.9</ele>
        <time>2018-03-30T08:48:19Z</time>
      </trkpt>
      <trkpt lat="47.67352" lon="-2.52388">
        <ele>89.5</ele>
        <time>2018-03-30T08:48:24Z</time>
      </trkpt>
      <trkpt lat="47.67361" lon="-2.5239">
        <ele>87</ele>
        <time>2018-03-30T08:48:31Z</time>
      </trkpt>
      <trkpt lat="47.6737" lon="-2.52396">
        <ele>87.1</ele>
        <time>2018-03-30T08:48:37Z</time>
      </trkpt>
      <trkpt lat="47.67376" lon="-2.52406">
        <ele>85.7</ele>
        <time>2018-03-30T08:48:43Z</time>
      </trkpt>
      <trkpt lat="47.67383" lon="-2.52417">
        <ele>83.6</ele>
        <time>2018-03-30T08:48:52Z</time>
      </trkpt>
      <trkpt lat="47.67392" lon="-2.52424">
        <ele>83.2</ele>
        <time>2018-03-30T08:48:57Z</time>
      </trkpt>
      <trkpt lat="47.67399" lon="-2.52433">
        <ele>82.9</ele>
        <time>2018-03-30T08:49:04Z</time>
      </trkpt>
      <trkpt lat="47.67406" lon="-2.52442">
        <ele>81.7</ele>
        <time>2018-03-30T08:49:14Z</time>
      </trkpt>
      <trkpt lat="47.67415" lon="-2.52445">
        <ele>81.2</ele>
        <time>2018-03-30T08:49:26Z</time>
      </trkpt>
      <trkpt lat="47.67423" lon="-2.52452">
        <ele>80.5</ele>
        <time>2018-03-30T08:49:38Z</time>
      </trkpt>
      <trkpt lat="47.67432" lon="-2.52455">
        <ele>80.7</ele>
        <time>2018-03-30T08:50:04Z</time>
      </trkpt>
      <trkpt lat="47.67438" lon="-2.52466">
        <ele>81.5</ele>
        <time>2018-03-30T08:50:19Z</time>
      </trkpt>
      <trkpt lat="47.67446" lon="-2.52473">
        <ele>81.9</ele>
        <time>2018-03-30T08:50:31Z</time>
      </trkpt>
      <trkpt lat="47.67456" lon="-2.52475">
        <ele>81.3</ele>
        <time>2018-03-30T08:51:05Z</time>
      </trkpt>
      <trkpt lat="47.67465" lon="-2.52469">
        <ele>81.2</ele>
        <time>2018-03-30T08:51:59Z</time>
      </trkpt>
      <trkpt lat="47.6747" lon="-2.52457">
        <ele>81</ele>
        <time>2018-03-30T08:52:25Z</time>
      </trkpt>
      <trkpt lat="47.67471" lon="-2.52471">
        <ele>81.8</ele>
        <time>2018-03-30T08:52:52Z</time>
      </trkpt>
      <trkpt lat="47.67477" lon="-2.52482">
        <ele>81.9</ele>
        <time>2018-03-30T08:52:59Z</time>
      </trkpt>
      <trkpt lat="47.67483" lon="-2.52494">
        <ele>82.4</ele>
        <time>2018-03-30T08:53:05Z</time>
      </trkpt>
      <trkpt lat="47.67487" lon="-2.52507">
        <ele>82.7</ele>
        <time>2018-03-30T08:53:12Z</time>
      </trkpt>
      <trkpt lat="47.67489" lon="-2.52521">
        <ele>82.5</ele>
        <time>2018-03-30T08:53:32Z</time>
      </trkpt>
      <trkpt lat="47.67495" lon="-2.52531">
        <ele>82.3</ele>
        <time>2018-03-30T08:53:45Z</time>
      </trkpt>
      <trkpt lat="47.67495" lon="-2.52546">
        <ele>81</ele>
        <time>2018-03-30T08:53:58Z</time>
      </trkpt>
      <trkpt lat="47.675" lon="-2.52559">
        <ele>82</ele>
        <time>2018-03-30T08:54:09Z</time>
      </trkpt>
      <trkpt lat="47.67506" lon="-2.5257">
        <ele>81.9</ele>
        <time>2018-03-30T08:54:19Z</time>
      </trkpt>
      <trkpt lat="47.6751" lon="-2.52583">
        <ele>82.1</ele>
        <time>2018-03-30T08:54:36Z</time>
      </trkpt>
      <trkpt lat="47.67514" lon="-2.52596">
        <ele>81.8</ele>
        <time>2018-03-30T08:54:50Z</time>
      </trkpt>
      <trkpt lat="47.6752" lon="-2.52606">
        <ele>81.4</ele>
        <time>2018-03-30T08:55:02Z</time>
      </trkpt>
      <trkpt lat="47.67522" lon="-2.52621">
        <ele>81.3</ele>
        <time>2018-03-30T08:55:09Z</time>
      </trkpt>
      <trkpt lat="47.67527" lon="-2.52632">
        <ele>79.5</ele>
        <time>2018-03-30T08:55:18Z</time>
      </trkpt>
      <trkpt lat="47.67533" lon="-2.52642">
        <ele>80</ele>
        <time>2018-03-30T08:55:27Z</time>
      </trkpt>
      <trkpt lat="47.67537" lon="-2.52657">
        <ele>80.1</ele>
        <time>2018-03-30T08:55:36Z</time>
      </trkpt>
      <trkpt lat="47.67539" lon="-2.52671">
        <ele>80.2</ele>
        <time>2018-03-30T08:55:45Z</time>
      </trkpt>
      <trkpt lat="47.67542" lon="-2.52684">
        <ele>80</ele>
        <time>2018-03-30T08:55:53Z</time>
      </trkpt>
      <trkpt lat="47.67544" lon="-2.52698">
        <ele>79.6</ele>
        <time>2018-03-30T08:56:01Z</time>
      </trkpt>
      <trkpt lat="47.67545" lon="-2.52711">
        <ele>79.6</ele>
        <time>2018-03-30T08:56:09Z</time>
      </trkpt>
      <trkpt lat="47.67548" lon="-2.52725">
        <ele>79.9</ele>
        <time>2018-03-30T08:56:23Z</time>
      </trkpt>
      <trkpt lat="47.67551" lon="-2.52739">
        <ele>79.8</ele>
        <time>2018-03-30T08:56:36Z</time>
      </trkpt>
      <trkpt lat="47.67548" lon="-2.52752">
        <ele>55.5</ele>
        <time>2018-03-30T08:57:19Z</time>
      </trkpt>
      <trkpt lat="47.67553" lon="-2.52765">
        <ele>82.3</ele>
        <time>2018-03-30T08:57:33Z</time>
      </trkpt>
      <trkpt lat="47.67557" lon="-2.52778">
        <ele>80.4</ele>
        <time>2018-03-30T08:57:43Z</time>
      </trkpt>
      <trkpt lat="47.67564" lon="-2.52787">
        <ele>81.1</ele>
        <time>2018-03-30T08:57:54Z</time>
      </trkpt>
      <trkpt lat="47.67574" lon="-2.52786">
        <ele>80.9</ele>
        <time>2018-03-30T08:58:07Z</time>
      </trkpt>
      <trkpt lat="47.67584" lon="-2.52786">
        <ele>80.4</ele>
        <time>2018-03-30T08:58:19Z</time>
      </trkpt>
      <trkpt lat="47.67593" lon="-2.52789">
        <ele>80.7</ele>
        <time>2018-03-30T08:58:30Z</time>
      </trkpt>
      <trkpt lat="47.67602" lon="-2.52792">
        <ele>80.9</ele>
        <time>2018-03-30T08:58:40Z</time>
      </trkpt>
      <trkpt lat="47.67612" lon="-2.52797">
        <ele>81</ele>
        <time>2018-03-30T08:58:48Z</time>
      </trkpt>
      <trkpt lat="47.67622" lon="-2.52801">
        <ele>80.9</ele>
        <time>2018-03-30T08:58:56Z</time>
      </trkpt>
      <trkpt lat="47.67632" lon="-2.52804">
        <ele>81.2</ele>
        <time>2018-03-30T08:59:01Z</time>
      </trkpt>
      <trkpt lat="47.6764" lon="-2.5281">
        <ele>81.3</ele>
        <time>2018-03-30T08:59:10Z</time>
      </trkpt>
      <trkpt lat="47.6765" lon="-2.52813">
        <ele>81.6</ele>
        <time>2018-03-30T08:59:16Z</time>
      </trkpt>
      <trkpt lat="47.67659" lon="-2.52818">
        <ele>81.2</ele>
        <time>2018-03-30T08:59:21Z</time>
      </trkpt>
      <trkpt lat="47.67667" lon="-2.52822">
        <ele>81</ele>
        <time>2018-03-30T08:59:25Z</time>
      </trkpt>
      <trkpt lat="47.67676" lon="-2.52827">
        <ele>81</ele>
        <time>2018-03-30T08:59:33Z</time>
      </trkpt>
      <trkpt lat="47.67685" lon="-2.52833">
        <ele>81.3</ele>
        <time>2018-03-30T08:59:42Z</time>
      </trkpt>
      <trkpt lat="47.67694" lon="-2.52842">
        <ele>80.6</ele>
        <time>2018-03-30T08:59:52Z</time>
      </trkpt>
      <trkpt lat="47.67702" lon="-2.52848">
        <ele>80.4</ele>
        <time>2018-03-30T08:59:56Z</time>
      </trkpt>
      <trkpt lat="47.6771" lon="-2.52856">
        <ele>80.5</ele>
        <time>2018-03-30T09:00:02Z</time>
      </trkpt>
      <trkpt lat="47.67719" lon="-2.5286">
        <ele>80.5</ele>
        <time>2018-03-30T09:00:08Z</time>
      </trkpt>
      <trkpt lat="47.67725" lon="-2.5287">
        <ele>80.5</ele>
        <time>2018-03-30T09:00:17Z</time>
      </trkpt>
      <trkpt lat="47.67731" lon="-2.52882">
        <ele>79.7</ele>
        <time>2018-03-30T09:00:33Z</time>
      </trkpt>
      <trkpt lat="47.67738" lon="-2.5289">
        <ele>79.5</ele>
        <time>2018-03-30T09:00:43Z</time>
      </trkpt>
      <trkpt lat="47.67746" lon="-2.52898">
        <ele>79.2</ele>
        <time>2018-03-30T09:00:52Z</time>
      </trkpt>
      <trkpt lat="47.67755" lon="-2.52895">
        <ele>79</ele>
        <time>2018-03-30T09:01:03Z</time>
      </trkpt>
      <trkpt lat="47.67762" lon="-2.52884">
        <ele>78.7</ele>
        <time>2018-03-30T09:01:12Z</time>
      </trkpt>
      <trkpt lat="47.67769" lon="-2.52875">
        <ele>78.6</ele>
        <time>2018-03-30T09:01:24Z</time>
      </trkpt>
      <trkpt lat="47.67777" lon="-2.52867">
        <ele>79.3</ele>
        <time>2018-03-30T09:01:42Z</time>
      </trkpt>
      <trkpt lat="47.67785" lon="-2.52858">
        <ele>79</ele>
        <time>2018-03-30T09:01:53Z</time>
      </trkpt>
      <trkpt lat="47.67777" lon="-2.52866">
        <ele>78.7</ele>
        <time>2018-03-30T09:02:15Z</time>
      </trkpt>
      <trkpt lat="47.67769" lon="-2.52873">
        <ele>78.7</ele>
        <time>2018-03-30T09:02:27Z</time>
      </trkpt>
      <trkpt lat="47.6776" lon="-2.52881">
        <ele>78.5</ele>
        <time>2018-03-30T09:02:33Z</time>
      </trkpt>
      <trkpt lat="47.67752" lon="-2.52888">
        <ele>78.9</ele>
        <time>2018-03-30T09:02:40Z</time>
      </trkpt>
      <trkpt lat="47.67751" lon="-2.52902">
        <ele>79.2</ele>
        <time>2018-03-30T09:03:02Z</time>
      </trkpt>
      <trkpt lat="47.67753" lon="-2.52916">
        <ele>78.9</ele>
        <time>2018-03-30T09:03:11Z</time>
      </trkpt>
      <trkpt lat="47.67757" lon="-2.52928">
        <ele>79.1</ele>
        <time>2018-03-30T09:03:17Z</time>
      </trkpt>
      <trkpt lat="47.67759" lon="-2.52943">
        <ele>79.5</ele>
        <time>2018-03-30T09:03:25Z</time>
      </trkpt>
      <trkpt lat="47.67765" lon="-2.52954">
        <ele>79.3</ele>
        <time>2018-03-30T09:03:33Z</time>
      </trkpt>
      <trkpt lat="47.6777" lon="-2.52967">
        <ele>80</ele>
        <time>2018-03-30T09:03:41Z</time>
      </trkpt>
      <trkpt lat="47.67775" lon="-2.52978">
        <ele>80.6</ele>
        <time>2018-03-30T09:03:48Z</time>
      </trkpt>
      <trkpt lat="47.67781" lon="-2.5299">
        <ele>80.8</ele>
        <time>2018-03-30T09:03:54Z</time>
      </trkpt>
      <trkpt lat="47.67787" lon="-2.53001">
        <ele>80.1</ele>
        <time>2018-03-30T09:04:00Z</time>
      </trkpt>
      <trkpt lat="47.67793" lon="-2.53011">
        <ele>80.6</ele>
        <time>2018-03-30T09:04:07Z</time>
      </trkpt>
      <trkpt lat="47.67799" lon="-2.53025">
        <ele>80.7</ele>
        <time>2018-03-30T09:04:13Z</time>
      </trkpt>
      <trkpt lat="47.67805" lon="-2.53037">
        <ele>80.1</ele>
        <time>2018-03-30T09:04:20Z</time>
      </trkpt>
      <trkpt lat="47.6781" lon="-2.53049">
        <ele>80.1</ele>
        <time>2018-03-30T09:04:27Z</time>
      </trkpt>
      <trkpt lat="47.67816" lon="-2.53061">
        <ele>80.5</ele>
        <time>2018-03-30T09:04:35Z</time>
      </trkpt>
      <trkpt lat="47.67823" lon="-2.53072">
        <ele>80.6</ele>
        <time>2018-03-30T09:04:43Z</time>
      </trkpt>
      <trkpt lat="47.67828" lon="-2.53084">
        <ele>80.4</ele>
        <time>2018-03-30T09:04:52Z</time>
      </trkpt>
      <trkpt lat="47.67834" lon="-2.53095">
        <ele>81.2</ele>
        <time>2018-03-30T09:04:59Z</time>
      </trkpt>
      <trkpt lat="47.67841" lon="-2.53105">
        <ele>81.3</ele>
        <time>2018-03-30T09:05:06Z</time>
      </trkpt>
      <trkpt lat="47.67844" lon="-2.53118">
        <ele>81.1</ele>
        <time>2018-03-30T09:05:12Z</time>
      </trkpt>
      <trkpt lat="47.67848" lon="-2.53131">
        <ele>81.3</ele>
        <time>2018-03-30T09:05:19Z</time>
      </trkpt>
      <trkpt lat="47.67853" lon="-2.53142">
        <ele>81.6</ele>
        <time>2018-03-30T09:05:26Z</time>
      </trkpt>
      <trkpt lat="47.67849" lon="-2.53155">
        <ele>82</ele>
        <time>2018-03-30T09:05:34Z</time>
      </trkpt>
      <trkpt lat="47.67843" lon="-2.53165">
        <ele>82.9</ele>
        <time>2018-03-30T09:05:42Z</time>
      </trkpt>
      <trkpt lat="47.67834" lon="-2.53173">
        <ele>83.9</ele>
        <time>2018-03-30T09:05:52Z</time>
      </trkpt>
      <trkpt lat="47.67826" lon="-2.53184">
        <ele>84.5</ele>
        <time>2018-03-30T09:06:00Z</time>
      </trkpt>
      <trkpt lat="47.67818" lon="-2.53192">
        <ele>85.9</ele>
        <time>2018-03-30T09:06:12Z</time>
      </trkpt>
      <trkpt lat="47.67811" lon="-2.53202">
        <ele>87.1</ele>
        <time>2018-03-30T09:06:20Z</time>
      </trkpt>
      <trkpt lat="47.67803" lon="-2.53212">
        <ele>87.5</ele>
        <time>2018-03-30T09:06:26Z</time>
      </trkpt>
      <trkpt lat="47.67794" lon="-2.53221">
        <ele>87.6</ele>
        <time>2018-03-30T09:06:33Z</time>
      </trkpt>
      <trkpt lat="47.67788" lon="-2.5323">
        <ele>87.3</ele>
        <time>2018-03-30T09:06:39Z</time>
      </trkpt>
      <trkpt lat="47.6778" lon="-2.53239">
        <ele>88</ele>
        <time>2018-03-30T09:06:48Z</time>
      </trkpt>
      <trkpt lat="47.67773" lon="-2.53249">
        <ele>88.7</ele>
        <time>2018-03-30T09:06:57Z</time>
      </trkpt>
      <trkpt lat="47.67765" lon="-2.53259">
        <ele>89.6</ele>
        <time>2018-03-30T09:07:04Z</time>
      </trkpt>
      <trkpt lat="47.67758" lon="-2.53267">
        <ele>89.9</ele>
        <time>2018-03-30T09:07:11Z</time>
      </trkpt>
      <trkpt lat="47.6775" lon="-2.53276">
        <ele>89.8</ele>
        <time>2018-03-30T09:07:18Z</time>
      </trkpt>
      <trkpt lat="47.67742" lon="-2.53285">
        <ele>90.6</ele>
        <time>2018-03-30T09:07:26Z</time>
      </trkpt>
      <trkpt lat="47.67736" lon="-2.53295">
        <ele>91.4</ele>
        <time>2018-03-30T09:07:33Z</time>
      </trkpt>
      <trkpt lat="47.67728" lon="-2.53303">
        <ele>92.3</ele>
        <time>2018-03-30T09:07:40Z</time>
      </trkpt>
      <trkpt lat="47.67721" lon="-2.53313">
        <ele>92.9</ele>
        <time>2018-03-30T09:07:47Z</time>
      </trkpt>
      <trkpt lat="47.67714" lon="-2.53322">
        <ele>93.8</ele>
        <time>2018-03-30T09:07:54Z</time>
      </trkpt>
      <trkpt lat="47.67707" lon="-2.5333">
        <ele>94.4</ele>
        <time>2018-03-30T09:08:01Z</time>
      </trkpt>
      <trkpt lat="47.677" lon="-2.53342">
        <ele>95.3</ele>
        <time>2018-03-30T09:08:08Z</time>
      </trkpt>
      <trkpt lat="47.67693" lon="-2.53352">
        <ele>95.8</ele>
        <time>2018-03-30T09:08:12Z</time>
      </trkpt>
      <trkpt lat="47.67686" lon="-2.5336">
        <ele>96.3</ele>
        <time>2018-03-30T09:08:19Z</time>
      </trkpt>
      <trkpt lat="47.6768" lon="-2.53371">
        <ele>97.5</ele>
        <time>2018-03-30T09:08:26Z</time>
      </trkpt>
      <trkpt lat="47.67673" lon="-2.53379">
        <ele>98.6</ele>
        <time>2018-03-30T09:08:33Z</time>
      </trkpt>
      <trkpt lat="47.67665" lon="-2.53387">
        <ele>100.1</ele>
        <time>2018-03-30T09:08:41Z</time>
      </trkpt>
      <trkpt lat="47.67658" lon="-2.53397">
        <ele>101.1</ele>
        <time>2018-03-30T09:08:49Z</time>
      </trkpt>
      <trkpt lat="47.67651" lon="-2.53406">
        <ele>102.3</ele>
        <time>2018-03-30T09:08:56Z</time>
      </trkpt>
      <trkpt lat="47.67643" lon="-2.53415">
        <ele>103.8</ele>
        <time>2018-03-30T09:09:04Z</time>
      </trkpt>
      <trkpt lat="47.67636" lon="-2.53423">
        <ele>104.2</ele>
        <time>2018-03-30T09:09:11Z</time>
      </trkpt>
      <trkpt lat="47.67629" lon="-2.53433">
        <ele>105.2</ele>
        <time>2018-03-30T09:09:18Z</time>
      </trkpt>
      <trkpt lat="47.67623" lon="-2.53443">
        <ele>106.4</ele>
        <time>2018-03-30T09:09:25Z</time>
      </trkpt>
      <trkpt lat="47.67613" lon="-2.53444">
        <ele>107.9</ele>
        <time>2018-03-30T09:09:46Z</time>
      </trkpt>
      <trkpt lat="47.67605" lon="-2.5344">
        <ele>108.6</ele>
        <time>2018-03-30T09:09:53Z</time>
      </trkpt>
      <trkpt lat="47.67596" lon="-2.53434">
        <ele>108.7</ele>
        <time>2018-03-30T09:10:00Z</time>
      </trkpt>
      <trkpt lat="47.67587" lon="-2.53427">
        <ele>108.6</ele>
        <time>2018-03-30T09:10:07Z</time>
      </trkpt>
      <trkpt lat="47.67579" lon="-2.53418">
        <ele>108.8</ele>
        <time>2018-03-30T09:10:15Z</time>
      </trkpt>
      <trkpt lat="47.67572" lon="-2.5341">
        <ele>108.7</ele>
        <time>2018-03-30T09:10:22Z</time>
      </trkpt>
      <trkpt lat="47.67564" lon="-2.53402">
        <ele>108.6</ele>
        <time>2018-03-30T09:10:29Z</time>
      </trkpt>
      <trkpt lat="47.67556" lon="-2.53395">
        <ele>108.5</ele>
        <time>2018-03-30T09:10:36Z</time>
      </trkpt>
      <trkpt lat="47.67546" lon="-2.53391">
        <ele>108.5</ele>
        <time>2018-03-30T09:10:42Z</time>
      </trkpt>
      <trkpt lat="47.67536" lon="-2.5339">
        <ele>109.3</ele>
        <time>2018-03-30T09:10:48Z</time>
      </trkpt>
      <trkpt lat="47.67527" lon="-2.53389">
        <ele>109.5</ele>
        <time>2018-03-30T09:10:54Z</time>
      </trkpt>
      <trkpt lat="47.67518" lon="-2.53387">
        <ele>109.6</ele>
        <time>2018-03-30T09:11:01Z</time>
      </trkpt>
      <trkpt lat="47.67508" lon="-2.53388">
        <ele>109.7</ele>
        <time>2018-03-30T09:11:15Z</time>
      </trkpt>
      <trkpt lat="47.67498" lon="-2.53388">
        <ele>109.2</ele>
        <time>2018-03-30T09:11:22Z</time>
      </trkpt>
      <trkpt lat="47.67489" lon="-2.53384">
        <ele>109.4</ele>
        <time>2018-03-30T09:11:34Z</time>
      </trkpt>
      <trkpt lat="47.6748" lon="-2.53387">
        <ele>109.7</ele>
        <time>2018-03-30T09:12:08Z</time>
      </trkpt>
      <trkpt lat="47.67471" lon="-2.53387">
        <ele>109.7</ele>
        <time>2018-03-30T09:12:15Z</time>
      </trkpt>
      <trkpt lat="47.6746" lon="-2.53388">
        <ele>109.6</ele>
        <time>2018-03-30T09:12:24Z</time>
      </trkpt>
      <trkpt lat="47.67451" lon="-2.53388">
        <ele>109.3</ele>
        <time>2018-03-30T09:12:32Z</time>
      </trkpt>
      <trkpt lat="47.67442" lon="-2.53387">
        <ele>109.8</ele>
        <time>2018-03-30T09:12:41Z</time>
      </trkpt>
      <trkpt lat="47.67433" lon="-2.5339">
        <ele>110.4</ele>
        <time>2018-03-30T09:12:48Z</time>
      </trkpt>
      <trkpt lat="47.67424" lon="-2.53386">
        <ele>110.3</ele>
        <time>2018-03-30T09:12:56Z</time>
      </trkpt>
      <trkpt lat="47.67415" lon="-2.53387">
        <ele>110.1</ele>
        <time>2018-03-30T09:13:03Z</time>
      </trkpt>
      <trkpt lat="47.67406" lon="-2.53388">
        <ele>110</ele>
        <time>2018-03-30T09:13:09Z</time>
      </trkpt>
      <trkpt lat="47.67399" lon="-2.53397">
        <ele>109.2</ele>
        <time>2018-03-30T09:13:16Z</time>
      </trkpt>
      <trkpt lat="47.674" lon="-2.53411">
        <ele>109.6</ele>
        <time>2018-03-30T09:13:22Z</time>
      </trkpt>
      <trkpt lat="47.67398" lon="-2.53424">
        <ele>110.2</ele>
        <time>2018-03-30T09:13:39Z</time>
      </trkpt>
      <trkpt lat="47.674" lon="-2.53437">
        <ele>110.8</ele>
        <time>2018-03-30T09:14:28Z</time>
      </trkpt>
      <trkpt lat="47.67401" lon="-2.53451">
        <ele>109.3</ele>
        <time>2018-03-30T09:14:35Z</time>
      </trkpt>
      <trkpt lat="47.67403" lon="-2.53466">
        <ele>107.9</ele>
        <time>2018-03-30T09:14:43Z</time>
      </trkpt>
      <trkpt lat="47.67404" lon="-2.5348">
        <ele>107.8</ele>
        <time>2018-03-30T09:14:51Z</time>
      </trkpt>
      <trkpt lat="47.67406" lon="-2.53493">
        <ele>107.4</ele>
        <time>2018-03-30T09:14:58Z</time>
      </trkpt>
      <trkpt lat="47.67408" lon="-2.53508">
        <ele>107.1</ele>
        <time>2018-03-30T09:15:05Z</time>
      </trkpt>
      <trkpt lat="47.6741" lon="-2.53522">
        <ele>107</ele>
        <time>2018-03-30T09:15:12Z</time>
      </trkpt>
      <trkpt lat="47.67413" lon="-2.53537">
        <ele>106.5</ele>
        <time>2018-03-30T09:15:19Z</time>
      </trkpt>
      <trkpt lat="47.67416" lon="-2.53552">
        <ele>105.6</ele>
        <time>2018-03-30T09:15:26Z</time>
      </trkpt>
      <trkpt lat="47.67419" lon="-2.53566">
        <ele>105</ele>
        <time>2018-03-30T09:15:33Z</time>
      </trkpt>
      <trkpt lat="47.6742" lon="-2.5358">
        <ele>104.6</ele>
        <time>2018-03-30T09:15:40Z</time>
      </trkpt>
      <trkpt lat="47.67422" lon="-2.53595">
        <ele>103.8</ele>
        <time>2018-03-30T09:15:47Z</time>
      </trkpt>
      <trkpt lat="47.67424" lon="-2.53609">
        <ele>103.6</ele>
        <time>2018-03-30T09:15:54Z</time>
      </trkpt>
      <trkpt lat="47.67424" lon="-2.53624">
        <ele>102.8</ele>
        <time>2018-03-30T09:16:01Z</time>
      </trkpt>
      <trkpt lat="47.67425" lon="-2.53638">
        <ele>102.6</ele>
        <time>2018-03-30T09:16:08Z</time>
      </trkpt>
      <trkpt lat="47.67425" lon="-2.53652">
        <ele>102.2</ele>
        <time>2018-03-30T09:16:14Z</time>
      </trkpt>
      <trkpt lat="47.67425" lon="-2.53665">
        <ele>101.6</ele>
        <time>2018-03-30T09:16:20Z</time>
      </trkpt>
      <trkpt lat="47.67425" lon="-2.53679">
        <ele>101.6</ele>
        <time>2018-03-30T09:16:27Z</time>
      </trkpt>
      <trkpt lat="47.67425" lon="-2.53694">
        <ele>99.8</ele>
        <time>2018-03-30T09:16:45Z</time>
      </trkpt>
      <trkpt lat="47.67424" lon="-2.53708">
        <ele>100.9</ele>
        <time>2018-03-30T09:16:52Z</time>
      </trkpt>
      <trkpt lat="47.67423" lon="-2.53724">
        <ele>101</ele>
        <time>2018-03-30T09:16:59Z</time>
      </trkpt>
      <trkpt lat="47.67417" lon="-2.53735">
        <ele>101</ele>
        <time>2018-03-30T09:17:05Z</time>
      </trkpt>
      <trkpt lat="47.67409" lon="-2.53742">
        <ele>101.5</ele>
        <time>2018-03-30T09:17:11Z</time>
      </trkpt>
      <trkpt lat="47.67402" lon="-2.53751">
        <ele>101.9</ele>
        <time>2018-03-30T09:17:18Z</time>
      </trkpt>
      <trkpt lat="47.67393" lon="-2.53758">
        <ele>102.1</ele>
        <time>2018-03-30T09:17:25Z</time>
      </trkpt>
      <trkpt lat="47.67385" lon="-2.53767">
        <ele>102.1</ele>
        <time>2018-03-30T09:17:32Z</time>
      </trkpt>
      <trkpt lat="47.67377" lon="-2.53774">
        <ele>102.6</ele>
        <time>2018-03-30T09:17:39Z</time>
      </trkpt>
      <trkpt lat="47.67369" lon="-2.53782">
        <ele>102.9</ele>
        <time>2018-03-30T09:17:46Z</time>
      </trkpt>
      <trkpt lat="47.67362" lon="-2.53791">
        <ele>103.1</ele>
        <time>2018-03-30T09:17:53Z</time>
      </trkpt>
      <trkpt lat="47.67352" lon="-2.53797">
        <ele>102.9</ele>
        <time>2018-03-30T09:18:00Z</time>
      </trkpt>
      <trkpt lat="47.67343" lon="-2.53802">
        <ele>103.4</ele>
        <time>2018-03-30T09:18:07Z</time>
      </trkpt>
      <trkpt lat="47.67334" lon="-2.53807">
        <ele>103.7</ele>
        <time>2018-03-30T09:18:14Z</time>
      </trkpt>
      <trkpt lat="47.67325" lon="-2.53814">
        <ele>103.8</ele>
        <time>2018-03-30T09:18:21Z</time>
      </trkpt>
      <trkpt lat="47.67317" lon="-2.53823">
        <ele>104.1</ele>
        <time>2018-03-30T09:18:28Z</time>
      </trkpt>
      <trkpt lat="47.67309" lon="-2.53829">
        <ele>104.6</ele>
        <time>2018-03-30T09:18:35Z</time>
      </trkpt>
      <trkpt lat="47.67301" lon="-2.53833">
        <ele>104.7</ele>
        <time>2018-03-30T09:18:41Z</time>
      </trkpt>
      <trkpt lat="47.67292" lon="-2.53836">
        <ele>104.4</ele>
        <time>2018-03-30T09:18:47Z</time>
      </trkpt>
      <trkpt lat="47.67282" lon="-2.53839">
        <ele>104.6</ele>
        <time>2018-03-30T09:18:54Z</time>
      </trkpt>
      <trkpt lat="47.67272" lon="-2.53842">
        <ele>105</ele>
        <time>2018-03-30T09:19:01Z</time>
      </trkpt>
      <trkpt lat="47.67263" lon="-2.53846">
        <ele>105</ele>
        <time>2018-03-30T09:19:08Z</time>
      </trkpt>
      <trkpt lat="47.67254" lon="-2.53851">
        <ele>104.9</ele>
        <time>2018-03-30T09:19:16Z</time>
      </trkpt>
      <trkpt lat="47.67244" lon="-2.53853">
        <ele>105.5</ele>
        <time>2018-03-30T09:19:23Z</time>
      </trkpt>
      <trkpt lat="47.67233" lon="-2.53852">
        <ele>105.5</ele>
        <time>2018-03-30T09:19:30Z</time>
      </trkpt>
      <trkpt lat="47.67223" lon="-2.53851">
        <ele>105.8</ele>
        <time>2018-03-30T09:19:37Z</time>
      </trkpt>
      <trkpt lat="47.67212" lon="-2.53849">
        <ele>105.9</ele>
        <time>2018-03-30T09:19:45Z</time>
      </trkpt>
      <trkpt lat="47.67203" lon="-2.5385">
        <ele>105.5</ele>
        <time>2018-03-30T09:19:53Z</time>
      </trkpt>
      <trkpt lat="47.67207" lon="-2.53864">
        <ele>106.2</ele>
        <time>2018-03-30T09:20:01Z</time>
      </trkpt>
      <trkpt lat="47.6721" lon="-2.53877">
        <ele>106.3</ele>
        <time>2018-03-30T09:20:09Z</time>
      </trkpt>
      <trkpt lat="47.67213" lon="-2.53891">
        <ele>106</ele>
        <time>2018-03-30T09:20:16Z</time>
      </trkpt>
      <trkpt lat="47.67213" lon="-2.53905">
        <ele>106</ele>
        <time>2018-03-30T09:20:24Z</time>
      </trkpt>
      <trkpt lat="47.67214" lon="-2.53919">
        <ele>106.3</ele>
        <time>2018-03-30T09:20:34Z</time>
      </trkpt>
      <trkpt lat="47.67217" lon="-2.53933">
        <ele>106.2</ele>
        <time>2018-03-30T09:20:41Z</time>
      </trkpt>
      <trkpt lat="47.67218" lon="-2.53946">
        <ele>106</ele>
        <time>2018-03-30T09:20:47Z</time>
      </trkpt>
      <trkpt lat="47.6722" lon="-2.53961">
        <ele>106.3</ele>
        <time>2018-03-30T09:20:54Z</time>
      </trkpt>
      <trkpt lat="47.67221" lon="-2.53975">
        <ele>106.2</ele>
        <time>2018-03-30T09:21:00Z</time>
      </trkpt>
      <trkpt lat="47.67223" lon="-2.53988">
        <ele>106.1</ele>
        <time>2018-03-30T09:21:06Z</time>
      </trkpt>
      <trkpt lat="47.67226" lon="-2.54002">
        <ele>106.3</ele>
        <time>2018-03-30T09:21:13Z</time>
      </trkpt>
      <trkpt lat="47.67229" lon="-2.54017">
        <ele>105.7</ele>
        <time>2018-03-30T09:21:21Z</time>
      </trkpt>
      <trkpt lat="47.67231" lon="-2.54031">
        <ele>106.1</ele>
        <time>2018-03-30T09:21:29Z</time>
      </trkpt>
      <trkpt lat="47.67233" lon="-2.54043">
        <ele>106.2</ele>
        <time>2018-03-30T09:21:35Z</time>
      </trkpt>
      <trkpt lat="47.67236" lon="-2.54057">
        <ele>106.2</ele>
        <time>2018-03-30T09:21:41Z</time>
      </trkpt>
      <trkpt lat="47.67238" lon="-2.54071">
        <ele>106</ele>
        <time>2018-03-30T09:21:48Z</time>
      </trkpt>
      <trkpt lat="47.6724" lon="-2.54085">
        <ele>106</ele>
        <time>2018-03-30T09:21:55Z</time>
      </trkpt>
      <trkpt lat="47.67232" lon="-2.54096">
        <ele>106.5</ele>
        <time>2018-03-30T09:22:01Z</time>
      </trkpt>
      <trkpt lat="47.67223" lon="-2.54098">
        <ele>106.7</ele>
        <time>2018-03-30T09:22:08Z</time>
      </trkpt>
      <trkpt lat="47.67213" lon="-2.54101">
        <ele>106.1</ele>
        <time>2018-03-30T09:22:17Z</time>
      </trkpt>
      <trkpt lat="47.67202" lon="-2.54104">
        <ele>106.2</ele>
        <time>2018-03-30T09:22:26Z</time>
      </trkpt>
      <trkpt lat="47.67193" lon="-2.54104">
        <ele>106</ele>
        <time>2018-03-30T09:22:31Z</time>
      </trkpt>
      <trkpt lat="47.67184" lon="-2.54109">
        <ele>106.4</ele>
        <time>2018-03-30T09:22:38Z</time>
      </trkpt>
      <trkpt lat="47.67175" lon="-2.54109">
        <ele>106.4</ele>
        <time>2018-03-30T09:22:45Z</time>
      </trkpt>
      <trkpt lat="47.67166" lon="-2.54112">
        <ele>106.4</ele>
        <time>2018-03-30T09:22:51Z</time>
      </trkpt>
      <trkpt lat="47.67156" lon="-2.54114">
        <ele>106.2</ele>
        <time>2018-03-30T09:22:59Z</time>
      </trkpt>
      <trkpt lat="47.67148" lon="-2.5412">
        <ele>106.3</ele>
        <time>2018-03-30T09:23:06Z</time>
      </trkpt>
      <trkpt lat="47.67148" lon="-2.54134">
        <ele>105.9</ele>
        <time>2018-03-30T09:23:16Z</time>
      </trkpt>
      <trkpt lat="47.67147" lon="-2.54148">
        <ele>102.9</ele>
        <time>2018-03-30T09:23:35Z</time>
      </trkpt>
      <trkpt lat="47.67143" lon="-2.54162">
        <ele>105.4</ele>
        <time>2018-03-30T09:23:41Z</time>
      </trkpt>
      <trkpt lat="47.67135" lon="-2.5417">
        <ele>106.3</ele>
        <time>2018-03-30T09:23:48Z</time>
      </trkpt>
      <trkpt lat="47.67125" lon="-2.54175">
        <ele>106.2</ele>
        <time>2018-03-30T09:23:59Z</time>
      </trkpt>
      <trkpt lat="47.67116" lon="-2.54176">
        <ele>106.6</ele>
        <time>2018-03-30T09:24:16Z</time>
      </trkpt>
      <trkpt lat="47.67108" lon="-2.5417">
        <ele>105.6</ele>
        <time>2018-03-30T09:24:45Z</time>
      </trkpt>
      <trkpt lat="47.67098" lon="-2.54169">
        <ele>105.7</ele>
        <time>2018-03-30T09:24:53Z</time>
      </trkpt>
      <trkpt lat="47.67089" lon="-2.54166">
        <ele>104.9</ele>
        <time>2018-03-30T09:25:01Z</time>
      </trkpt>
      <trkpt lat="47.6708" lon="-2.54163">
        <ele>105.2</ele>
        <time>2018-03-30T09:25:08Z</time>
      </trkpt>
      <trkpt lat="47.6707" lon="-2.54163">
        <ele>105.7</ele>
        <time>2018-03-30T09:25:15Z</time>
      </trkpt>
      <trkpt lat="47.67062" lon="-2.54153">
        <ele>105.7</ele>
        <time>2018-03-30T09:25:25Z</time>
      </trkpt>
      <trkpt lat="47.67057" lon="-2.5414">
        <ele>105.5</ele>
        <time>2018-03-30T09:25:32Z</time>
      </trkpt>
      <trkpt lat="47.67056" lon="-2.54127">
        <ele>105.4</ele>
        <time>2018-03-30T09:25:43Z</time>
      </trkpt>
      <trkpt lat="47.67049" lon="-2.54117">
        <ele>104.9</ele>
        <time>2018-03-30T09:25:54Z</time>
      </trkpt>
      <trkpt lat="47.67043" lon="-2.54107">
        <ele>105.4</ele>
        <time>2018-03-30T09:26:01Z</time>
      </trkpt>
      <trkpt lat="47.67036" lon="-2.54097">
        <ele>104.6</ele>
        <time>2018-03-30T09:26:08Z</time>
      </trkpt>
      <trkpt lat="47.67031" lon="-2.54086">
        <ele>104.3</ele>
        <time>2018-03-30T09:26:16Z</time>
      </trkpt>
      <trkpt lat="47.67026" lon="-2.54075">
        <ele>104.4</ele>
        <time>2018-03-30T09:26:24Z</time>
      </trkpt>
      <trkpt lat="47.67018" lon="-2.54065">
        <ele>103.8</ele>
        <time>2018-03-30T09:26:31Z</time>
      </trkpt>
      <trkpt lat="47.67012" lon="-2.54054">
        <ele>103.4</ele>
        <time>2018-03-30T09:26:38Z</time>
      </trkpt>
      <trkpt lat="47.67006" lon="-2.54042">
        <ele>103.2</ele>
        <time>2018-03-30T09:26:47Z</time>
      </trkpt>
      <trkpt lat="47.66999" lon="-2.5403">
        <ele>102.9</ele>
        <time>2018-03-30T09:26:54Z</time>
      </trkpt>
      <trkpt lat="47.66993" lon="-2.54018">
        <ele>102.3</ele>
        <time>2018-03-30T09:27:01Z</time>
      </trkpt>
      <trkpt lat="47.66989" lon="-2.54007">
        <ele>102.2</ele>
        <time>2018-03-30T09:27:07Z</time>
      </trkpt>
      <trkpt lat="47.66984" lon="-2.53995">
        <ele>102.3</ele>
        <time>2018-03-30T09:27:13Z</time>
      </trkpt>
      <trkpt lat="47.6698" lon="-2.53983">
        <ele>102</ele>
        <time>2018-03-30T09:27:20Z</time>
      </trkpt>
      <trkpt lat="47.66977" lon="-2.5397">
        <ele>102</ele>
        <time>2018-03-30T09:27:27Z</time>
      </trkpt>
      <trkpt lat="47.66975" lon="-2.53956">
        <ele>101.2</ele>
        <time>2018-03-30T09:27:34Z</time>
      </trkpt>
      <trkpt lat="47.66973" lon="-2.53942">
        <ele>101</ele>
        <time>2018-03-30T09:27:43Z</time>
      </trkpt>
      <trkpt lat="47.66969" lon="-2.53928">
        <ele>100.6</ele>
        <time>2018-03-30T09:27:51Z</time>
      </trkpt>
      <trkpt lat="47.66963" lon="-2.53917">
        <ele>100.5</ele>
        <time>2018-03-30T09:27:59Z</time>
      </trkpt>
      <trkpt lat="47.66957" lon="-2.53906">
        <ele>100.6</ele>
        <time>2018-03-30T09:28:07Z</time>
      </trkpt>
      <trkpt lat="47.66952" lon="-2.53893">
        <ele>100.8</ele>
        <time>2018-03-30T09:28:14Z</time>
      </trkpt>
      <trkpt lat="47.66948" lon="-2.53879">
        <ele>100.1</ele>
        <time>2018-03-30T09:28:21Z</time>
      </trkpt>
      <trkpt lat="47.66945" lon="-2.53865">
        <ele>100.6</ele>
        <time>2018-03-30T09:28:29Z</time>
      </trkpt>
      <trkpt lat="47.6694" lon="-2.53852">
        <ele>99.4</ele>
        <time>2018-03-30T09:28:36Z</time>
      </trkpt>
      <trkpt lat="47.66937" lon="-2.53838">
        <ele>99.9</ele>
        <time>2018-03-30T09:28:44Z</time>
      </trkpt>
      <trkpt lat="47.66931" lon="-2.53827">
        <ele>99.6</ele>
        <time>2018-03-30T09:28:50Z</time>
      </trkpt>
      <trkpt lat="47.66924" lon="-2.53816">
        <ele>99.8</ele>
        <time>2018-03-30T09:28:58Z</time>
      </trkpt>
      <trkpt lat="47.66917" lon="-2.53806">
        <ele>99.5</ele>
        <time>2018-03-30T09:29:05Z</time>
      </trkpt>
      <trkpt lat="47.6691" lon="-2.53794">
        <ele>99.6</ele>
        <time>2018-03-30T09:29:13Z</time>
      </trkpt>
      <trkpt lat="47.66903" lon="-2.53783">
        <ele>100</ele>
        <time>2018-03-30T09:29:20Z</time>
      </trkpt>
      <trkpt lat="47.66899" lon="-2.53771">
        <ele>99.9</ele>
        <time>2018-03-30T09:29:27Z</time>
      </trkpt>
      <trkpt lat="47.66893" lon="-2.53759">
        <ele>99.5</ele>
        <time>2018-03-30T09:29:33Z</time>
      </trkpt>
      <trkpt lat="47.6689" lon="-2.53745">
        <ele>99.6</ele>
        <time>2018-03-30T09:29:41Z</time>
      </trkpt>
      <trkpt lat="47.66886" lon="-2.53729">
        <ele>100.2</ele>
        <time>2018-03-30T09:29:50Z</time>
      </trkpt>
      <trkpt lat="47.66887" lon="-2.53715">
        <ele>99.7</ele>
        <time>2018-03-30T09:29:59Z</time>
      </trkpt>
      <trkpt lat="47.66884" lon="-2.53702">
        <ele>99.7</ele>
        <time>2018-03-30T09:30:04Z</time>
      </trkpt>
      <trkpt lat="47.66882" lon="-2.53687">
        <ele>98.8</ele>
        <time>2018-03-30T09:30:13Z</time>
      </trkpt>
      <trkpt lat="47.66884" lon="-2.53672">
        <ele>98.4</ele>
        <time>2018-03-30T09:30:22Z</time>
      </trkpt>
      <trkpt lat="47.66882" lon="-2.53658">
        <ele>97.8</ele>
        <time>2018-03-30T09:30:29Z</time>
      </trkpt>
      <trkpt lat="47.66881" lon="-2.53644">
        <ele>97</ele>
        <time>2018-03-30T09:30:38Z</time>
      </trkpt>
      <trkpt lat="47.66882" lon="-2.5363">
        <ele>96.8</ele>
        <time>2018-03-30T09:30:45Z</time>
      </trkpt>
      <trkpt lat="47.6688" lon="-2.53615">
        <ele>96.9</ele>
        <time>2018-03-30T09:30:54Z</time>
      </trkpt>
      <trkpt lat="47.66876" lon="-2.53602">
        <ele>96.9</ele>
        <time>2018-03-30T09:31:01Z</time>
      </trkpt>
      <trkpt lat="47.66869" lon="-2.5359">
        <ele>96.3</ele>
        <time>2018-03-30T09:31:07Z</time>
      </trkpt>
      <trkpt lat="47.66864" lon="-2.53578">
        <ele>96.1</ele>
        <time>2018-03-30T09:31:15Z</time>
      </trkpt>
      <trkpt lat="47.66858" lon="-2.53566">
        <ele>95.9</ele>
        <time>2018-03-30T09:31:23Z</time>
      </trkpt>
      <trkpt lat="47.6685" lon="-2.53557">
        <ele>95.5</ele>
        <time>2018-03-30T09:31:31Z</time>
      </trkpt>
      <trkpt lat="47.66844" lon="-2.53546">
        <ele>95.1</ele>
        <time>2018-03-30T09:31:39Z</time>
      </trkpt>
      <trkpt lat="47.66836" lon="-2.53538">
        <ele>94.2</ele>
        <time>2018-03-30T09:31:46Z</time>
      </trkpt>
      <trkpt lat="47.66829" lon="-2.53526">
        <ele>94</ele>
        <time>2018-03-30T09:31:53Z</time>
      </trkpt>
      <trkpt lat="47.66823" lon="-2.53514">
        <ele>94.2</ele>
        <time>2018-03-30T09:32:00Z</time>
      </trkpt>
      <trkpt lat="47.66818" lon="-2.53502">
        <ele>93.8</ele>
        <time>2018-03-30T09:32:06Z</time>
      </trkpt>
      <trkpt lat="47.66812" lon="-2.53491">
        <ele>93.4</ele>
        <time>2018-03-30T09:32:15Z</time>
      </trkpt>
      <trkpt lat="47.66804" lon="-2.53483">
        <ele>93</ele>
        <time>2018-03-30T09:32:25Z</time>
      </trkpt>
      <trkpt lat="47.66796" lon="-2.53478">
        <ele>93.1</ele>
        <time>2018-03-30T09:32:33Z</time>
      </trkpt>
      <trkpt lat="47.66787" lon="-2.53472">
        <ele>94</ele>
        <time>2018-03-30T09:32:41Z</time>
      </trkpt>
      <trkpt lat="47.66778" lon="-2.5347">
        <ele>94.4</ele>
        <time>2018-03-30T09:32:48Z</time>
      </trkpt>
      <trkpt lat="47.66768" lon="-2.53467">
        <ele>94.1</ele>
        <time>2018-03-30T09:32:57Z</time>
      </trkpt>
      <trkpt lat="47.6676" lon="-2.5346">
        <ele>94.1</ele>
        <time>2018-03-30T09:33:05Z</time>
      </trkpt>
      <trkpt lat="47.66752" lon="-2.53452">
        <ele>93.8</ele>
        <time>2018-03-30T09:33:14Z</time>
      </trkpt>
      <trkpt lat="47.66746" lon="-2.53442">
        <ele>93</ele>
        <time>2018-03-30T09:33:20Z</time>
      </trkpt>
      <trkpt lat="47.66737" lon="-2.53435">
        <ele>92.3</ele>
        <time>2018-03-30T09:33:29Z</time>
      </trkpt>
      <trkpt lat="47.66732" lon="-2.53423">
        <ele>91.4</ele>
        <time>2018-03-30T09:33:38Z</time>
      </trkpt>
      <trkpt lat="47.6673" lon="-2.5341">
        <ele>91.9</ele>
        <time>2018-03-30T09:34:20Z</time>
      </trkpt>
      <trkpt lat="47.66728" lon="-2.53396">
        <ele>91</ele>
        <time>2018-03-30T09:34:40Z</time>
      </trkpt>
      <trkpt lat="47.66723" lon="-2.53383">
        <ele>90.8</ele>
        <time>2018-03-30T09:34:50Z</time>
      </trkpt>
      <trkpt lat="47.66717" lon="-2.53372">
        <ele>91.3</ele>
        <time>2018-03-30T09:35:01Z</time>
      </trkpt>
      <trkpt lat="47.66712" lon="-2.53358">
        <ele>92.4</ele>
        <time>2018-03-30T09:35:10Z</time>
      </trkpt>
      <trkpt lat="47.66708" lon="-2.53344">
        <ele>92.9</ele>
        <time>2018-03-30T09:35:20Z</time>
      </trkpt>
      <trkpt lat="47.66706" lon="-2.5333">
        <ele>93.2</ele>
        <time>2018-03-30T09:35:30Z</time>
      </trkpt>
      <trkpt lat="47.66708" lon="-2.53317">
        <ele>94.2</ele>
        <time>2018-03-30T09:35:41Z</time>
      </trkpt>
      <trkpt lat="47.66711" lon="-2.53304">
        <ele>94.9</ele>
        <time>2018-03-30T09:35:53Z</time>
      </trkpt>
      <trkpt lat="47.66709" lon="-2.53289">
        <ele>94.8</ele>
        <time>2018-03-30T09:36:02Z</time>
      </trkpt>
      <trkpt lat="47.66704" lon="-2.53277">
        <ele>95.3</ele>
        <time>2018-03-30T09:36:10Z</time>
      </trkpt>
      <trkpt lat="47.66701" lon="-2.53262">
        <ele>96.6</ele>
        <time>2018-03-30T09:36:22Z</time>
      </trkpt>
      <trkpt lat="47.66698" lon="-2.53249">
        <ele>97.5</ele>
        <time>2018-03-30T09:36:31Z</time>
      </trkpt>
      <trkpt lat="47.66693" lon="-2.53237">
        <ele>98.5</ele>
        <time>2018-03-30T09:36:38Z</time>
      </trkpt>
      <trkpt lat="47.66689" lon="-2.53225">
        <ele>98.9</ele>
        <time>2018-03-30T09:36:46Z</time>
      </trkpt>
      <trkpt lat="47.66685" lon="-2.53212">
        <ele>99.1</ele>
        <time>2018-03-30T09:36:54Z</time>
      </trkpt>
      <trkpt lat="47.66682" lon="-2.53199">
        <ele>99</ele>
        <time>2018-03-30T09:37:04Z</time>
      </trkpt>
      <trkpt lat="47.66678" lon="-2.53186">
        <ele>99.4</ele>
        <time>2018-03-30T09:37:12Z</time>
      </trkpt>
      <trkpt lat="47.66673" lon="-2.53172">
        <ele>99.5</ele>
        <time>2018-03-30T09:37:20Z</time>
      </trkpt>
      <trkpt lat="47.66669" lon="-2.5316">
        <ele>99.5</ele>
        <time>2018-03-30T09:37:27Z</time>
      </trkpt>
      <trkpt lat="47.66667" lon="-2.53147">
        <ele>99</ele>
        <time>2018-03-30T09:37:34Z</time>
      </trkpt>
      <trkpt lat="47.66666" lon="-2.53132">
        <ele>100</ele>
        <time>2018-03-30T09:37:45Z</time>
      </trkpt>
      <trkpt lat="47.66662" lon="-2.5312">
        <ele>99.9</ele>
        <time>2018-03-30T09:37:59Z</time>
      </trkpt>
      <trkpt lat="47.66658" lon="-2.53107">
        <ele>99.5</ele>
        <time>2018-03-30T09:38:35Z</time>
      </trkpt>
      <trkpt lat="47.66656" lon="-2.53093">
        <ele>99.5</ele>
        <time>2018-03-30T09:39:46Z</time>
      </trkpt>
      <trkpt lat="47.66652" lon="-2.53081">
        <ele>99.6</ele>
        <time>2018-03-30T09:39:56Z</time>
      </trkpt>
      <trkpt lat="47.66649" lon="-2.53068">
        <ele>99.7</ele>
        <time>2018-03-30T09:40:04Z</time>
      </trkpt>
      <trkpt lat="47.66647" lon="-2.53054">
        <ele>99.7</ele>
        <time>2018-03-30T09:40:15Z</time>
      </trkpt>
      <trkpt lat="47.66643" lon="-2.53042">
        <ele>99.7</ele>
        <time>2018-03-30T09:40:23Z</time>
      </trkpt>
      <trkpt lat="47.66639" lon="-2.53028">
        <ele>99.8</ele>
        <time>2018-03-30T09:40:33Z</time>
      </trkpt>
      <trkpt lat="47.66636" lon="-2.53015">
        <ele>99.9</ele>
        <time>2018-03-30T09:40:41Z</time>
      </trkpt>
      <trkpt lat="47.66631" lon="-2.53002">
        <ele>100.2</ele>
        <time>2018-03-30T09:40:50Z</time>
      </trkpt>
      <trkpt lat="47.66628" lon="-2.52988">
        <ele>100.5</ele>
        <time>2018-03-30T09:40:57Z</time>
      </trkpt>
      <trkpt lat="47.66626" lon="-2.52975">
        <ele>100.5</ele>
        <time>2018-03-30T09:41:04Z</time>
      </trkpt>
      <trkpt lat="47.66625" lon="-2.52961">
        <ele>100.5</ele>
        <time>2018-03-30T09:41:14Z</time>
      </trkpt>
      <trkpt lat="47.6662" lon="-2.52947">
        <ele>100.7</ele>
        <time>2018-03-30T09:41:21Z</time>
      </trkpt>
      <trkpt lat="47.66618" lon="-2.52934">
        <ele>100.7</ele>
        <time>2018-03-30T09:41:31Z</time>
      </trkpt>
      <trkpt lat="47.66614" lon="-2.52921">
        <ele>101.1</ele>
        <time>2018-03-30T09:41:43Z</time>
      </trkpt>
      <trkpt lat="47.66611" lon="-2.52907">
        <ele>101.1</ele>
        <time>2018-03-30T09:41:50Z</time>
      </trkpt>
      <trkpt lat="47.66607" lon="-2.52895">
        <ele>101.5</ele>
        <time>2018-03-30T09:41:56Z</time>
      </trkpt>
      <trkpt lat="47.66602" lon="-2.52883">
        <ele>101.7</ele>
        <time>2018-03-30T09:42:02Z</time>
      </trkpt>
      <trkpt lat="47.66597" lon="-2.52871">
        <ele>101.9</ele>
        <time>2018-03-30T09:42:08Z</time>
      </trkpt>
      <trkpt lat="47.66592" lon="-2.52858">
        <ele>101.8</ele>
        <time>2018-03-30T09:42:17Z</time>
      </trkpt>
      <trkpt lat="47.66586" lon="-2.52847">
        <ele>102</ele>
        <time>2018-03-30T09:42:24Z</time>
      </trkpt>
      <trkpt lat="47.66581" lon="-2.52835">
        <ele>102.4</ele>
        <time>2018-03-30T09:42:29Z</time>
      </trkpt>
      <trkpt lat="47.66575" lon="-2.52823">
        <ele>102.3</ele>
        <time>2018-03-30T09:42:36Z</time>
      </trkpt>
      <trkpt lat="47.6657" lon="-2.52811">
        <ele>102.2</ele>
        <time>2018-03-30T09:42:43Z</time>
      </trkpt>
      <trkpt lat="47.66564" lon="-2.52797">
        <ele>102.2</ele>
        <time>2018-03-30T09:42:51Z</time>
      </trkpt>
      <trkpt lat="47.66559" lon="-2.52785">
        <ele>102.9</ele>
        <time>2018-03-30T09:43:00Z</time>
      </trkpt>
      <trkpt lat="47.66552" lon="-2.52773">
        <ele>103.1</ele>
        <time>2018-03-30T09:43:07Z</time>
      </trkpt>
      <trkpt lat="47.66543" lon="-2.52766">
        <ele>103.1</ele>
        <time>2018-03-30T09:43:14Z</time>
      </trkpt>
      <trkpt lat="47.66536" lon="-2.52759">
        <ele>102.3</ele>
        <time>2018-03-30T09:43:20Z</time>
      </trkpt>
      <trkpt lat="47.66527" lon="-2.52753">
        <ele>102.3</ele>
        <time>2018-03-30T09:43:29Z</time>
      </trkpt>
      <trkpt lat="47.66519" lon="-2.52746">
        <ele>102.4</ele>
        <time>2018-03-30T09:43:36Z</time>
      </trkpt>
      <trkpt lat="47.66509" lon="-2.52745">
        <ele>102.2</ele>
        <time>2018-03-30T09:43:43Z</time>
      </trkpt>
      <trkpt lat="47.66498" lon="-2.52743">
        <ele>101.9</ele>
        <time>2018-03-30T09:43:50Z</time>
      </trkpt>
      <trkpt lat="47.66489" lon="-2.52739">
        <ele>101.5</ele>
        <time>2018-03-30T09:43:57Z</time>
      </trkpt>
      <trkpt lat="47.66481" lon="-2.5273">
        <ele>101.4</ele>
        <time>2018-03-30T09:44:06Z</time>
      </trkpt>
      <trkpt lat="47.66474" lon="-2.5272">
        <ele>101.3</ele>
        <time>2018-03-30T09:44:13Z</time>
      </trkpt>
      <trkpt lat="47.66468" lon="-2.5271">
        <ele>100.8</ele>
        <time>2018-03-30T09:44:21Z</time>
      </trkpt>
      <trkpt lat="47.66461" lon="-2.52701">
        <ele>100.7</ele>
        <time>2018-03-30T09:44:27Z</time>
      </trkpt>
      <trkpt lat="47.66455" lon="-2.52691">
        <ele>100.5</ele>
        <time>2018-03-30T09:44:33Z</time>
      </trkpt>
      <trkpt lat="47.66447" lon="-2.52681">
        <ele>100.5</ele>
        <time>2018-03-30T09:44:39Z</time>
      </trkpt>
      <trkpt lat="47.6644" lon="-2.52673">
        <ele>100.3</ele>
        <time>2018-03-30T09:44:45Z</time>
      </trkpt>
      <trkpt lat="47.66432" lon="-2.52664">
        <ele>99.9</ele>
        <time>2018-03-30T09:44:50Z</time>
      </trkpt>
      <trkpt lat="47.66427" lon="-2.52653">
        <ele>99.6</ele>
        <time>2018-03-30T09:45:05Z</time>
      </trkpt>
      <trkpt lat="47.66419" lon="-2.52661">
        <ele>99.4</ele>
        <time>2018-03-30T09:45:14Z</time>
      </trkpt>
      <trkpt lat="47.6641" lon="-2.52664">
        <ele>98.6</ele>
        <time>2018-03-30T09:45:28Z</time>
      </trkpt>
      <trkpt lat="47.664" lon="-2.52668">
        <ele>97.7</ele>
        <time>2018-03-30T09:45:38Z</time>
      </trkpt>
      <trkpt lat="47.66392" lon="-2.52675">
        <ele>97</ele>
        <time>2018-03-30T09:45:44Z</time>
      </trkpt>
      <trkpt lat="47.66383" lon="-2.52679">
        <ele>96.8</ele>
        <time>2018-03-30T09:45:53Z</time>
      </trkpt>
      <trkpt lat="47.66374" lon="-2.52685">
        <ele>96.4</ele>
        <time>2018-03-30T09:46:01Z</time>
      </trkpt>
      <trkpt lat="47.66366" lon="-2.52689">
        <ele>95.9</ele>
        <time>2018-03-30T09:46:09Z</time>
      </trkpt>
      <trkpt lat="47.66356" lon="-2.52691">
        <ele>95.8</ele>
        <time>2018-03-30T09:46:15Z</time>
      </trkpt>
      <trkpt lat="47.66347" lon="-2.52693">
        <ele>95.7</ele>
        <time>2018-03-30T09:46:21Z</time>
      </trkpt>
      <trkpt lat="47.66337" lon="-2.52694">
        <ele>95.2</ele>
        <time>2018-03-30T09:46:30Z</time>
      </trkpt>
      <trkpt lat="47.6633" lon="-2.52704">
        <ele>93.2</ele>
        <time>2018-03-30T09:46:41Z</time>
      </trkpt>
      <trkpt lat="47.66321" lon="-2.52702">
        <ele>91.4</ele>
        <time>2018-03-30T09:46:52Z</time>
      </trkpt>
      <trkpt lat="47.66312" lon="-2.52701">
        <ele>90.2</ele>
        <time>2018-03-30T09:47:00Z</time>
      </trkpt>
      <trkpt lat="47.66313" lon="-2.52714">
        <ele>87</ele>
        <time>2018-03-30T09:47:22Z</time>
      </trkpt>
      <trkpt lat="47.66317" lon="-2.52728">
        <ele>84.8</ele>
        <time>2018-03-30T09:47:34Z</time>
      </trkpt>
      <trkpt lat="47.66309" lon="-2.52735">
        <ele>83.7</ele>
        <time>2018-03-30T09:47:43Z</time>
      </trkpt>
      <trkpt lat="47.663" lon="-2.52734">
        <ele>82</ele>
        <time>2018-03-30T09:47:53Z</time>
      </trkpt>
      <trkpt lat="47.66291" lon="-2.52734">
        <ele>80.9</ele>
        <time>2018-03-30T09:48:00Z</time>
      </trkpt>
      <trkpt lat="47.66282" lon="-2.52736">
        <ele>80</ele>
        <time>2018-03-30T09:48:09Z</time>
      </trkpt>
      <trkpt lat="47.66273" lon="-2.5274">
        <ele>79.7</ele>
        <time>2018-03-30T09:48:21Z</time>
      </trkpt>
      <trkpt lat="47.66265" lon="-2.52747">
        <ele>79.6</ele>
        <time>2018-03-30T09:48:31Z</time>
      </trkpt>
      <trkpt lat="47.66257" lon="-2.52754">
        <ele>79.5</ele>
        <time>2018-03-30T09:48:42Z</time>
      </trkpt>
      <trkpt lat="47.66249" lon="-2.52764">
        <ele>79.3</ele>
        <time>2018-03-30T09:48:58Z</time>
      </trkpt>
      <trkpt lat="47.66246" lon="-2.52777">
        <ele>79.8</ele>
        <time>2018-03-30T09:49:11Z</time>
      </trkpt>
      <trkpt lat="47.66244" lon="-2.5279">
        <ele>80.8</ele>
        <time>2018-03-30T09:49:23Z</time>
      </trkpt>
      <trkpt lat="47.66241" lon="-2.52805">
        <ele>82.4</ele>
        <time>2018-03-30T09:49:35Z</time>
      </trkpt>
      <trkpt lat="47.6624" lon="-2.52821">
        <ele>84</ele>
        <time>2018-03-30T09:49:46Z</time>
      </trkpt>
      <trkpt lat="47.66241" lon="-2.52835">
        <ele>85.3</ele>
        <time>2018-03-30T09:49:57Z</time>
      </trkpt>
      <trkpt lat="47.66244" lon="-2.52847">
        <ele>86.9</ele>
        <time>2018-03-30T09:50:09Z</time>
      </trkpt>
      <trkpt lat="47.66242" lon="-2.5286">
        <ele>88.9</ele>
        <time>2018-03-30T09:50:18Z</time>
      </trkpt>
      <trkpt lat="47.66234" lon="-2.5287">
        <ele>90.6</ele>
        <time>2018-03-30T09:50:29Z</time>
      </trkpt>
      <trkpt lat="47.66226" lon="-2.52875">
        <ele>91.5</ele>
        <time>2018-03-30T09:50:37Z</time>
      </trkpt>
      <trkpt lat="47.66216" lon="-2.52878">
        <ele>92.1</ele>
        <time>2018-03-30T09:50:44Z</time>
      </trkpt>
      <trkpt lat="47.66208" lon="-2.52885">
        <ele>92.9</ele>
        <time>2018-03-30T09:50:56Z</time>
      </trkpt>
      <trkpt lat="47.66202" lon="-2.52899">
        <ele>93.3</ele>
        <time>2018-03-30T09:51:05Z</time>
      </trkpt>
      <trkpt lat="47.66195" lon="-2.52908">
        <ele>93.7</ele>
        <time>2018-03-30T09:51:11Z</time>
      </trkpt>
      <trkpt lat="47.66188" lon="-2.52916">
        <ele>94.4</ele>
        <time>2018-03-30T09:51:20Z</time>
      </trkpt>
      <trkpt lat="47.66185" lon="-2.52929">
        <ele>95.1</ele>
        <time>2018-03-30T09:51:32Z</time>
      </trkpt>
      <trkpt lat="47.66181" lon="-2.52943">
        <ele>95.7</ele>
        <time>2018-03-30T09:51:44Z</time>
      </trkpt>
      <trkpt lat="47.66177" lon="-2.52956">
        <ele>96</ele>
        <time>2018-03-30T09:51:52Z</time>
      </trkpt>
      <trkpt lat="47.66172" lon="-2.52969">
        <ele>95.8</ele>
        <time>2018-03-30T09:52:00Z</time>
      </trkpt>
      <trkpt lat="47.66171" lon="-2.52983">
        <ele>96.5</ele>
        <time>2018-03-30T09:52:09Z</time>
      </trkpt>
      <trkpt lat="47.66164" lon="-2.52994">
        <ele>97</ele>
        <time>2018-03-30T09:52:15Z</time>
      </trkpt>
      <trkpt lat="47.66157" lon="-2.53005">
        <ele>96.7</ele>
        <time>2018-03-30T09:52:20Z</time>
      </trkpt>
      <trkpt lat="47.66152" lon="-2.53016">
        <ele>96.9</ele>
        <time>2018-03-30T09:52:26Z</time>
      </trkpt>
      <trkpt lat="47.66148" lon="-2.53029">
        <ele>97</ele>
        <time>2018-03-30T09:52:33Z</time>
      </trkpt>
      <trkpt lat="47.66145" lon="-2.53042">
        <ele>97</ele>
        <time>2018-03-30T09:52:40Z</time>
      </trkpt>
      <trkpt lat="47.6614" lon="-2.53054">
        <ele>96.6</ele>
        <time>2018-03-30T09:52:47Z</time>
      </trkpt>
      <trkpt lat="47.66137" lon="-2.53068">
        <ele>96.9</ele>
        <time>2018-03-30T09:52:54Z</time>
      </trkpt>
      <trkpt lat="47.66133" lon="-2.53081">
        <ele>96.7</ele>
        <time>2018-03-30T09:53:01Z</time>
      </trkpt>
      <trkpt lat="47.6613" lon="-2.53093">
        <ele>96.8</ele>
        <time>2018-03-30T09:53:08Z</time>
      </trkpt>
      <trkpt lat="47.66128" lon="-2.53108">
        <ele>96.9</ele>
        <time>2018-03-30T09:53:15Z</time>
      </trkpt>
      <trkpt lat="47.66124" lon="-2.53121">
        <ele>96.7</ele>
        <time>2018-03-30T09:53:22Z</time>
      </trkpt>
      <trkpt lat="47.66122" lon="-2.53135">
        <ele>96.8</ele>
        <time>2018-03-30T09:53:29Z</time>
      </trkpt>
      <trkpt lat="47.66119" lon="-2.53148">
        <ele>97.2</ele>
        <time>2018-03-30T09:53:36Z</time>
      </trkpt>
      <trkpt lat="47.66116" lon="-2.53161">
        <ele>97.8</ele>
        <time>2018-03-30T09:53:43Z</time>
      </trkpt>
      <trkpt lat="47.66114" lon="-2.53175">
        <ele>97.8</ele>
        <time>2018-03-30T09:53:51Z</time>
      </trkpt>
      <trkpt lat="47.66116" lon="-2.5319">
        <ele>97.6</ele>
        <time>2018-03-30T09:53:59Z</time>
      </trkpt>
      <trkpt lat="47.66118" lon="-2.53204">
        <ele>98.2</ele>
        <time>2018-03-30T09:54:07Z</time>
      </trkpt>
      <trkpt lat="47.6612" lon="-2.53217">
        <ele>98.6</ele>
        <time>2018-03-30T09:54:14Z</time>
      </trkpt>
      <trkpt lat="47.66121" lon="-2.53231">
        <ele>98.9</ele>
        <time>2018-03-30T09:54:21Z</time>
      </trkpt>
      <trkpt lat="47.66122" lon="-2.53246">
        <ele>99.6</ele>
        <time>2018-03-30T09:54:28Z</time>
      </trkpt>
      <trkpt lat="47.66125" lon="-2.5326">
        <ele>99.7</ele>
        <time>2018-03-30T09:54:35Z</time>
      </trkpt>
      <trkpt lat="47.66127" lon="-2.53275">
        <ele>100</ele>
        <time>2018-03-30T09:54:42Z</time>
      </trkpt>
      <trkpt lat="47.66129" lon="-2.53289">
        <ele>100.3</ele>
        <time>2018-03-30T09:54:49Z</time>
      </trkpt>
      <trkpt lat="47.66131" lon="-2.53303">
        <ele>100.5</ele>
        <time>2018-03-30T09:54:57Z</time>
      </trkpt>
      <trkpt lat="47.66132" lon="-2.53317">
        <ele>100.6</ele>
        <time>2018-03-30T09:55:05Z</time>
      </trkpt>
      <trkpt lat="47.66136" lon="-2.53326">
        <ele>100.3</ele>
        <time>2018-03-30T09:55:18Z</time>
      </trkpt>
    </trkseg>
  </trk>
</gpx>